<?xml version="1.0" encoding="UTF-8" standalone="no" ?>
<gpx xmlns="http://www.topografix.com/GPX/1/1" xmlns:xsi="http://www.w3.org/2001/XMLSchema-instance" xsi:schemaLocation="http://www.topografix.com/GPX/1/1 http://www.topografix.com/GPX/1/1/gpx.xsd" version="1.1" creator="VisuGPX - https://www.visugpx.com">
  <metadata>
    <name>Le canyon du lamalou (itinéraire B) </name>
    <desc><![CDATA[Le ravin des arcs sans traversé le ruisseau le Lamalou (itinéraire B) ]]></desc>
  </metadata>
  <trk>
    <name><![CDATA[ACTIVE LOG 011]]></name>
    <trkseg>
      <trkpt lat="43.8119" lon="3.74182">
        <ele>101.07568359375</ele>
        <time>2014-11-15T08:26:57Z</time>
      </trkpt>
      <trkpt lat="43.81199" lon="3.74189">
        <ele>102.99829101562</ele>
        <time>2014-11-15T08:27:11Z</time>
      </trkpt>
      <trkpt lat="43.81198" lon="3.74183">
        <ele>107.80505371094</ele>
        <time>2014-11-15T08:27:41Z</time>
      </trkpt>
      <trkpt lat="43.81188" lon="3.74175">
        <ele>116.9375</ele>
        <time>2014-11-15T08:29:25Z</time>
      </trkpt>
      <trkpt lat="43.81179" lon="3.74166">
        <ele>119.3408203125</ele>
        <time>2014-11-15T08:29:35Z</time>
      </trkpt>
      <trkpt lat="43.81174" lon="3.74162">
        <ele>120.30212402344</ele>
        <time>2014-11-15T08:29:39Z</time>
      </trkpt>
      <trkpt lat="43.81178" lon="3.74176">
        <ele>122.22473144531</ele>
        <time>2014-11-15T08:29:49Z</time>
      </trkpt>
      <trkpt lat="43.81179" lon="3.74178">
        <ele>122.70544433594</ele>
        <time>2014-11-15T08:29:51Z</time>
      </trkpt>
      <trkpt lat="43.81185" lon="3.74193">
        <ele>123.66674804688</ele>
        <time>2014-11-15T08:30:04Z</time>
      </trkpt>
      <trkpt lat="43.81196" lon="3.74212">
        <ele>125.10876464844</ele>
        <time>2014-11-15T08:30:15Z</time>
      </trkpt>
      <trkpt lat="43.81198" lon="3.74231">
        <ele>127.03137207031</ele>
        <time>2014-11-15T08:30:24Z</time>
      </trkpt>
      <trkpt lat="43.81204" lon="3.7424">
        <ele>128.9541015625</ele>
        <time>2014-11-15T08:30:33Z</time>
      </trkpt>
      <trkpt lat="43.81206" lon="3.74242">
        <ele>129.91528320312</ele>
        <time>2014-11-15T08:30:36Z</time>
      </trkpt>
      <trkpt lat="43.8121" lon="3.74256">
        <ele>132.79931640625</ele>
        <time>2014-11-15T08:30:44Z</time>
      </trkpt>
      <trkpt lat="43.81214" lon="3.74264">
        <ele>134.2412109375</ele>
        <time>2014-11-15T08:30:52Z</time>
      </trkpt>
      <trkpt lat="43.81219" lon="3.74276">
        <ele>136.16394042969</ele>
        <time>2014-11-15T08:31:00Z</time>
      </trkpt>
      <trkpt lat="43.81225" lon="3.74295">
        <ele>139.52844238281</ele>
        <time>2014-11-15T08:31:11Z</time>
      </trkpt>
      <trkpt lat="43.81232" lon="3.74303">
        <ele>141.93176269531</ele>
        <time>2014-11-15T08:31:19Z</time>
      </trkpt>
      <trkpt lat="43.81234" lon="3.74302">
        <ele>142.89306640625</ele>
        <time>2014-11-15T08:31:21Z</time>
      </trkpt>
      <trkpt lat="43.81238" lon="3.743">
        <ele>145.77709960938</ele>
        <time>2014-11-15T08:31:27Z</time>
      </trkpt>
      <trkpt lat="43.81248" lon="3.74288">
        <ele>150.58361816406</ele>
        <time>2014-11-15T08:31:37Z</time>
      </trkpt>
      <trkpt lat="43.81249" lon="3.74288">
        <ele>152.02575683594</ele>
        <time>2014-11-15T08:31:39Z</time>
      </trkpt>
      <trkpt lat="43.81257" lon="3.74285">
        <ele>155.87097167969</ele>
        <time>2014-11-15T08:31:45Z</time>
      </trkpt>
      <trkpt lat="43.81261" lon="3.74272">
        <ele>160.67749023438</ele>
        <time>2014-11-15T08:31:53Z</time>
      </trkpt>
      <trkpt lat="43.81269" lon="3.74268">
        <ele>166.4453125</ele>
        <time>2014-11-15T08:32:00Z</time>
      </trkpt>
      <trkpt lat="43.81282" lon="3.74268">
        <ele>168.84875488281</ele>
        <time>2014-11-15T08:32:07Z</time>
      </trkpt>
      <trkpt lat="43.81281" lon="3.74267">
        <ele>169.32946777344</ele>
        <time>2014-11-15T08:32:08Z</time>
      </trkpt>
      <trkpt lat="43.81293" lon="3.74256">
        <ele>172.69396972656</ele>
        <time>2014-11-15T08:32:18Z</time>
      </trkpt>
      <trkpt lat="43.81301" lon="3.74251">
        <ele>175.09729003906</ele>
        <time>2014-11-15T08:32:24Z</time>
      </trkpt>
      <trkpt lat="43.81303" lon="3.74252">
        <ele>177.02001953125</ele>
        <time>2014-11-15T08:32:27Z</time>
      </trkpt>
      <trkpt lat="43.81306" lon="3.7425">
        <ele>179.42321777344</ele>
        <time>2014-11-15T08:32:31Z</time>
      </trkpt>
      <trkpt lat="43.81314" lon="3.7425">
        <ele>180.38452148438</ele>
        <time>2014-11-15T08:32:39Z</time>
      </trkpt>
      <trkpt lat="43.81324" lon="3.74252">
        <ele>183.26843261719</ele>
        <time>2014-11-15T08:32:46Z</time>
      </trkpt>
      <trkpt lat="43.81333" lon="3.74258">
        <ele>179.90380859375</ele>
        <time>2014-11-15T08:32:53Z</time>
      </trkpt>
      <trkpt lat="43.81342" lon="3.7426">
        <ele>178.94262695312</ele>
        <time>2014-11-15T08:33:00Z</time>
      </trkpt>
      <trkpt lat="43.81356" lon="3.74267">
        <ele>166.4453125</ele>
        <time>2014-11-15T08:33:09Z</time>
      </trkpt>
      <trkpt lat="43.81356" lon="3.74267">
        <ele>166.4453125</ele>
        <time>2014-11-15T08:33:10Z</time>
      </trkpt>
      <trkpt lat="43.8136" lon="3.74263">
        <ele>159.23547363281</ele>
        <time>2014-11-15T08:33:19Z</time>
      </trkpt>
      <trkpt lat="43.81367" lon="3.74265">
        <ele>159.71618652344</ele>
        <time>2014-11-15T08:33:25Z</time>
      </trkpt>
      <trkpt lat="43.81373" lon="3.74265">
        <ele>158.27416992188</ele>
        <time>2014-11-15T08:33:33Z</time>
      </trkpt>
      <trkpt lat="43.81381" lon="3.74269">
        <ele>149.62231445312</ele>
        <time>2014-11-15T08:33:41Z</time>
      </trkpt>
      <trkpt lat="43.81387" lon="3.7427">
        <ele>151.544921875</ele>
        <time>2014-11-15T08:33:47Z</time>
      </trkpt>
      <trkpt lat="43.81394" lon="3.74266">
        <ele>153.46765136719</ele>
        <time>2014-11-15T08:33:53Z</time>
      </trkpt>
      <trkpt lat="43.81408" lon="3.74268">
        <ele>154.90954589844</ele>
        <time>2014-11-15T08:34:06Z</time>
      </trkpt>
      <trkpt lat="43.81417" lon="3.74268">
        <ele>151.06420898438</ele>
        <time>2014-11-15T08:34:16Z</time>
      </trkpt>
      <trkpt lat="43.81431" lon="3.74273">
        <ele>150.10302734375</ele>
        <time>2014-11-15T08:34:28Z</time>
      </trkpt>
      <trkpt lat="43.81446" lon="3.74279">
        <ele>151.544921875</ele>
        <time>2014-11-15T08:34:44Z</time>
      </trkpt>
      <trkpt lat="43.81455" lon="3.74283">
        <ele>152.02575683594</ele>
        <time>2014-11-15T08:34:55Z</time>
      </trkpt>
      <trkpt lat="43.81466" lon="3.74293">
        <ele>153.94836425781</ele>
        <time>2014-11-15T08:35:13Z</time>
      </trkpt>
      <trkpt lat="43.81482" lon="3.74294">
        <ele>154.90954589844</ele>
        <time>2014-11-15T08:35:27Z</time>
      </trkpt>
      <trkpt lat="43.8149" lon="3.74298">
        <ele>154.90954589844</ele>
        <time>2014-11-15T08:35:38Z</time>
      </trkpt>
      <trkpt lat="43.8149" lon="3.74298">
        <ele>155.39025878906</ele>
        <time>2014-11-15T08:35:39Z</time>
      </trkpt>
      <trkpt lat="43.81503" lon="3.74295">
        <ele>156.3515625</ele>
        <time>2014-11-15T08:35:53Z</time>
      </trkpt>
      <trkpt lat="43.81511" lon="3.74297">
        <ele>157.79357910156</ele>
        <time>2014-11-15T08:36:07Z</time>
      </trkpt>
      <trkpt lat="43.81515" lon="3.74291">
        <ele>158.27416992188</ele>
        <time>2014-11-15T08:36:22Z</time>
      </trkpt>
      <trkpt lat="43.81512" lon="3.74288">
        <ele>157.79357910156</ele>
        <time>2014-11-15T08:36:38Z</time>
      </trkpt>
      <trkpt lat="43.8151" lon="3.74292">
        <ele>155.87097167969</ele>
        <time>2014-11-15T08:37:26Z</time>
      </trkpt>
      <trkpt lat="43.81507" lon="3.74297">
        <ele>155.39025878906</ele>
        <time>2014-11-15T08:37:42Z</time>
      </trkpt>
      <trkpt lat="43.8151" lon="3.74294">
        <ele>155.87097167969</ele>
        <time>2014-11-15T08:37:49Z</time>
      </trkpt>
      <trkpt lat="43.81525" lon="3.74288">
        <ele>155.87097167969</ele>
        <time>2014-11-15T08:37:55Z</time>
      </trkpt>
      <trkpt lat="43.81532" lon="3.74286">
        <ele>155.87097167969</ele>
        <time>2014-11-15T08:38:02Z</time>
      </trkpt>
      <trkpt lat="43.81537" lon="3.74281">
        <ele>156.3515625</ele>
        <time>2014-11-15T08:38:20Z</time>
      </trkpt>
      <trkpt lat="43.81543" lon="3.74273">
        <ele>155.87097167969</ele>
        <time>2014-11-15T08:38:30Z</time>
      </trkpt>
      <trkpt lat="43.81542" lon="3.74273">
        <ele>155.87097167969</ele>
        <time>2014-11-15T08:38:39Z</time>
      </trkpt>
      <trkpt lat="43.81546" lon="3.74269">
        <ele>155.87097167969</ele>
        <time>2014-11-15T08:38:42Z</time>
      </trkpt>
      <trkpt lat="43.81553" lon="3.74266">
        <ele>156.3515625</ele>
        <time>2014-11-15T08:38:46Z</time>
      </trkpt>
      <trkpt lat="43.81568" lon="3.74258">
        <ele>157.79357910156</ele>
        <time>2014-11-15T08:38:55Z</time>
      </trkpt>
      <trkpt lat="43.81577" lon="3.74253">
        <ele>158.75476074219</ele>
        <time>2014-11-15T08:39:01Z</time>
      </trkpt>
      <trkpt lat="43.81579" lon="3.74252">
        <ele>159.23547363281</ele>
        <time>2014-11-15T08:39:02Z</time>
      </trkpt>
      <trkpt lat="43.81589" lon="3.7424">
        <ele>161.63891601562</ele>
        <time>2014-11-15T08:39:10Z</time>
      </trkpt>
      <trkpt lat="43.81599" lon="3.74231">
        <ele>163.08081054688</ele>
        <time>2014-11-15T08:39:16Z</time>
      </trkpt>
      <trkpt lat="43.81611" lon="3.74229">
        <ele>164.04211425781</ele>
        <time>2014-11-15T08:39:22Z</time>
      </trkpt>
      <trkpt lat="43.81623" lon="3.74225">
        <ele>164.04211425781</ele>
        <time>2014-11-15T08:39:29Z</time>
      </trkpt>
      <trkpt lat="43.81627" lon="3.74228">
        <ele>164.04211425781</ele>
        <time>2014-11-15T08:39:36Z</time>
      </trkpt>
      <trkpt lat="43.81631" lon="3.74232">
        <ele>165.00341796875</ele>
        <time>2014-11-15T08:39:44Z</time>
      </trkpt>
      <trkpt lat="43.81636" lon="3.74237">
        <ele>163.08081054688</ele>
        <time>2014-11-15T08:39:53Z</time>
      </trkpt>
      <trkpt lat="43.81638" lon="3.74237">
        <ele>163.08081054688</ele>
        <time>2014-11-15T08:39:54Z</time>
      </trkpt>
      <trkpt lat="43.81649" lon="3.74242">
        <ele>164.04211425781</ele>
        <time>2014-11-15T08:40:00Z</time>
      </trkpt>
      <trkpt lat="43.81654" lon="3.74245">
        <ele>164.04211425781</ele>
        <time>2014-11-15T08:40:06Z</time>
      </trkpt>
      <trkpt lat="43.81655" lon="3.74246">
        <ele>162.60009765625</ele>
        <time>2014-11-15T08:40:12Z</time>
      </trkpt>
      <trkpt lat="43.81654" lon="3.74249">
        <ele>161.158203125</ele>
        <time>2014-11-15T08:40:18Z</time>
      </trkpt>
      <trkpt lat="43.81659" lon="3.74249">
        <ele>158.75476074219</ele>
        <time>2014-11-15T08:40:24Z</time>
      </trkpt>
      <trkpt lat="43.81661" lon="3.7425">
        <ele>158.75476074219</ele>
        <time>2014-11-15T08:40:26Z</time>
      </trkpt>
      <trkpt lat="43.81672" lon="3.74249">
        <ele>159.71618652344</ele>
        <time>2014-11-15T08:40:35Z</time>
      </trkpt>
      <trkpt lat="43.81679" lon="3.74248">
        <ele>160.67749023438</ele>
        <time>2014-11-15T08:40:42Z</time>
      </trkpt>
      <trkpt lat="43.81689" lon="3.74254">
        <ele>161.63891601562</ele>
        <time>2014-11-15T08:40:54Z</time>
      </trkpt>
      <trkpt lat="43.81696" lon="3.7425">
        <ele>163.08081054688</ele>
        <time>2014-11-15T08:41:02Z</time>
      </trkpt>
      <trkpt lat="43.81699" lon="3.74251">
        <ele>164.04211425781</ele>
        <time>2014-11-15T08:41:06Z</time>
      </trkpt>
      <trkpt lat="43.8171" lon="3.74251">
        <ele>164.52270507812</ele>
        <time>2014-11-15T08:41:19Z</time>
      </trkpt>
      <trkpt lat="43.81716" lon="3.74254">
        <ele>165.96472167969</ele>
        <time>2014-11-15T08:41:28Z</time>
      </trkpt>
      <trkpt lat="43.81726" lon="3.74252">
        <ele>168.36804199219</ele>
        <time>2014-11-15T08:41:40Z</time>
      </trkpt>
      <trkpt lat="43.81737" lon="3.74248">
        <ele>170.29064941406</ele>
        <time>2014-11-15T08:41:52Z</time>
      </trkpt>
      <trkpt lat="43.81749" lon="3.74252">
        <ele>171.25207519531</ele>
        <time>2014-11-15T08:42:05Z</time>
      </trkpt>
      <trkpt lat="43.81756" lon="3.74256">
        <ele>171.73266601562</ele>
        <time>2014-11-15T08:42:17Z</time>
      </trkpt>
      <trkpt lat="43.81763" lon="3.74257">
        <ele>175.09729003906</ele>
        <time>2014-11-15T08:42:24Z</time>
      </trkpt>
      <trkpt lat="43.81774" lon="3.74253">
        <ele>176.53930664062</ele>
        <time>2014-11-15T08:42:37Z</time>
      </trkpt>
      <trkpt lat="43.81772" lon="3.7425">
        <ele>176.53930664062</ele>
        <time>2014-11-15T08:42:47Z</time>
      </trkpt>
      <trkpt lat="43.81773" lon="3.74249">
        <ele>176.53930664062</ele>
        <time>2014-11-15T08:42:53Z</time>
      </trkpt>
      <trkpt lat="43.81785" lon="3.74235">
        <ele>173.6552734375</ele>
        <time>2014-11-15T08:43:06Z</time>
      </trkpt>
      <trkpt lat="43.81795" lon="3.74225">
        <ele>175.57788085938</ele>
        <time>2014-11-15T08:43:21Z</time>
      </trkpt>
      <trkpt lat="43.81797" lon="3.74224">
        <ele>176.05859375</ele>
        <time>2014-11-15T08:43:22Z</time>
      </trkpt>
      <trkpt lat="43.81811" lon="3.74217">
        <ele>177.02001953125</ele>
        <time>2014-11-15T08:43:37Z</time>
      </trkpt>
      <trkpt lat="43.81824" lon="3.74219">
        <ele>176.05859375</ele>
        <time>2014-11-15T08:43:49Z</time>
      </trkpt>
      <trkpt lat="43.81836" lon="3.74221">
        <ele>173.17468261719</ele>
        <time>2014-11-15T08:44:01Z</time>
      </trkpt>
      <trkpt lat="43.81844" lon="3.74224">
        <ele>174.13586425781</ele>
        <time>2014-11-15T08:44:11Z</time>
      </trkpt>
      <trkpt lat="43.81848" lon="3.74227">
        <ele>173.17468261719</ele>
        <time>2014-11-15T08:44:23Z</time>
      </trkpt>
      <trkpt lat="43.81855" lon="3.74229">
        <ele>174.13586425781</ele>
        <time>2014-11-15T08:44:44Z</time>
      </trkpt>
      <trkpt lat="43.81859" lon="3.74228">
        <ele>175.09729003906</ele>
        <time>2014-11-15T08:45:14Z</time>
      </trkpt>
      <trkpt lat="43.81859" lon="3.74225">
        <ele>175.09729003906</ele>
        <time>2014-11-15T08:45:30Z</time>
      </trkpt>
      <trkpt lat="43.81866" lon="3.74224">
        <ele>172.21325683594</ele>
        <time>2014-11-15T08:46:15Z</time>
      </trkpt>
      <trkpt lat="43.81868" lon="3.74225">
        <ele>172.69396972656</ele>
        <time>2014-11-15T08:46:27Z</time>
      </trkpt>
      <trkpt lat="43.81876" lon="3.74219">
        <ele>173.17468261719</ele>
        <time>2014-11-15T08:46:38Z</time>
      </trkpt>
      <trkpt lat="43.81879" lon="3.74215">
        <ele>174.61657714844</ele>
        <time>2014-11-15T08:46:48Z</time>
      </trkpt>
      <trkpt lat="43.81884" lon="3.74205">
        <ele>174.61657714844</ele>
        <time>2014-11-15T08:46:57Z</time>
      </trkpt>
      <trkpt lat="43.81886" lon="3.74196">
        <ele>174.13586425781</ele>
        <time>2014-11-15T08:47:07Z</time>
      </trkpt>
      <trkpt lat="43.81883" lon="3.74196">
        <ele>174.13586425781</ele>
        <time>2014-11-15T08:47:17Z</time>
      </trkpt>
      <trkpt lat="43.81881" lon="3.74189">
        <ele>174.13586425781</ele>
        <time>2014-11-15T08:47:35Z</time>
      </trkpt>
      <trkpt lat="43.81882" lon="3.74184">
        <ele>173.17468261719</ele>
        <time>2014-11-15T08:47:58Z</time>
      </trkpt>
      <trkpt lat="43.81883" lon="3.74181">
        <ele>173.6552734375</ele>
        <time>2014-11-15T08:48:00Z</time>
      </trkpt>
      <trkpt lat="43.81889" lon="3.74168">
        <ele>174.13586425781</ele>
        <time>2014-11-15T08:48:08Z</time>
      </trkpt>
      <trkpt lat="43.81891" lon="3.74153">
        <ele>171.73266601562</ele>
        <time>2014-11-15T08:48:20Z</time>
      </trkpt>
      <trkpt lat="43.81895" lon="3.74137">
        <ele>170.77136230469</ele>
        <time>2014-11-15T08:48:31Z</time>
      </trkpt>
      <trkpt lat="43.81896" lon="3.74126">
        <ele>168.84875488281</ele>
        <time>2014-11-15T08:48:42Z</time>
      </trkpt>
      <trkpt lat="43.81898" lon="3.74116">
        <ele>167.88732910156</ele>
        <time>2014-11-15T08:48:56Z</time>
      </trkpt>
      <trkpt lat="43.819" lon="3.74108">
        <ele>165.96472167969</ele>
        <time>2014-11-15T08:49:06Z</time>
      </trkpt>
      <trkpt lat="43.819" lon="3.74095">
        <ele>165.96472167969</ele>
        <time>2014-11-15T08:49:17Z</time>
      </trkpt>
      <trkpt lat="43.81898" lon="3.74088">
        <ele>166.4453125</ele>
        <time>2014-11-15T08:49:28Z</time>
      </trkpt>
      <trkpt lat="43.81891" lon="3.74081">
        <ele>165.00341796875</ele>
        <time>2014-11-15T08:49:41Z</time>
      </trkpt>
      <trkpt lat="43.81883" lon="3.74075">
        <ele>164.52270507812</ele>
        <time>2014-11-15T08:49:51Z</time>
      </trkpt>
      <trkpt lat="43.81876" lon="3.74063">
        <ele>164.04211425781</ele>
        <time>2014-11-15T08:50:05Z</time>
      </trkpt>
      <trkpt lat="43.81873" lon="3.74057">
        <ele>163.5615234375</ele>
        <time>2014-11-15T08:50:10Z</time>
      </trkpt>
      <trkpt lat="43.81865" lon="3.74042">
        <ele>163.5615234375</ele>
        <time>2014-11-15T08:50:24Z</time>
      </trkpt>
      <trkpt lat="43.81856" lon="3.74022">
        <ele>163.5615234375</ele>
        <time>2014-11-15T08:50:39Z</time>
      </trkpt>
      <trkpt lat="43.81854" lon="3.74013">
        <ele>163.5615234375</ele>
        <time>2014-11-15T08:50:46Z</time>
      </trkpt>
      <trkpt lat="43.81851" lon="3.73999">
        <ele>163.5615234375</ele>
        <time>2014-11-15T08:50:55Z</time>
      </trkpt>
      <trkpt lat="43.81847" lon="3.73988">
        <ele>162.60009765625</ele>
        <time>2014-11-15T08:51:04Z</time>
      </trkpt>
      <trkpt lat="43.81845" lon="3.7397">
        <ele>161.63891601562</ele>
        <time>2014-11-15T08:51:13Z</time>
      </trkpt>
      <trkpt lat="43.81843" lon="3.73957">
        <ele>159.23547363281</ele>
        <time>2014-11-15T08:51:21Z</time>
      </trkpt>
      <trkpt lat="43.81843" lon="3.73954">
        <ele>159.23547363281</ele>
        <time>2014-11-15T08:51:23Z</time>
      </trkpt>
      <trkpt lat="43.81841" lon="3.73948">
        <ele>158.27416992188</ele>
        <time>2014-11-15T08:51:28Z</time>
      </trkpt>
      <trkpt lat="43.81839" lon="3.73939">
        <ele>159.71618652344</ele>
        <time>2014-11-15T08:51:36Z</time>
      </trkpt>
      <trkpt lat="43.81839" lon="3.73932">
        <ele>160.19689941406</ele>
        <time>2014-11-15T08:51:48Z</time>
      </trkpt>
      <trkpt lat="43.81833" lon="3.73924">
        <ele>161.63891601562</ele>
        <time>2014-11-15T08:52:13Z</time>
      </trkpt>
      <trkpt lat="43.81833" lon="3.7392">
        <ele>161.63891601562</ele>
        <time>2014-11-15T08:52:16Z</time>
      </trkpt>
      <trkpt lat="43.81831" lon="3.73908">
        <ele>161.63891601562</ele>
        <time>2014-11-15T08:52:25Z</time>
      </trkpt>
      <trkpt lat="43.81832" lon="3.73897">
        <ele>162.60009765625</ele>
        <time>2014-11-15T08:52:35Z</time>
      </trkpt>
      <trkpt lat="43.81838" lon="3.73894">
        <ele>162.60009765625</ele>
        <time>2014-11-15T08:52:43Z</time>
      </trkpt>
      <trkpt lat="43.81849" lon="3.73883">
        <ele>163.5615234375</ele>
        <time>2014-11-15T08:52:58Z</time>
      </trkpt>
      <trkpt lat="43.81859" lon="3.73875">
        <ele>164.52270507812</ele>
        <time>2014-11-15T08:53:09Z</time>
      </trkpt>
      <trkpt lat="43.81864" lon="3.73869">
        <ele>165.00341796875</ele>
        <time>2014-11-15T08:53:18Z</time>
      </trkpt>
      <trkpt lat="43.81871" lon="3.7386">
        <ele>166.4453125</ele>
        <time>2014-11-15T08:53:32Z</time>
      </trkpt>
      <trkpt lat="43.81877" lon="3.73854">
        <ele>167.40673828125</ele>
        <time>2014-11-15T08:53:43Z</time>
      </trkpt>
      <trkpt lat="43.81882" lon="3.73848">
        <ele>168.84875488281</ele>
        <time>2014-11-15T08:53:52Z</time>
      </trkpt>
      <trkpt lat="43.81886" lon="3.73845">
        <ele>169.81005859375</ele>
        <time>2014-11-15T08:54:03Z</time>
      </trkpt>
      <trkpt lat="43.81892" lon="3.73836">
        <ele>171.25207519531</ele>
        <time>2014-11-15T08:54:18Z</time>
      </trkpt>
      <trkpt lat="43.81899" lon="3.7383">
        <ele>171.73266601562</ele>
        <time>2014-11-15T08:54:30Z</time>
      </trkpt>
      <trkpt lat="43.81908" lon="3.73824">
        <ele>172.69396972656</ele>
        <time>2014-11-15T08:54:43Z</time>
      </trkpt>
      <trkpt lat="43.81918" lon="3.73818">
        <ele>173.6552734375</ele>
        <time>2014-11-15T08:54:54Z</time>
      </trkpt>
      <trkpt lat="43.81919" lon="3.73807">
        <ele>173.6552734375</ele>
        <time>2014-11-15T08:55:05Z</time>
      </trkpt>
      <trkpt lat="43.81921" lon="3.73797">
        <ele>174.13586425781</ele>
        <time>2014-11-15T08:55:12Z</time>
      </trkpt>
      <trkpt lat="43.81928" lon="3.73788">
        <ele>174.13586425781</ele>
        <time>2014-11-15T08:55:24Z</time>
      </trkpt>
      <trkpt lat="43.81932" lon="3.73783">
        <ele>174.61657714844</ele>
        <time>2014-11-15T08:55:37Z</time>
      </trkpt>
      <trkpt lat="43.81941" lon="3.73778">
        <ele>176.05859375</ele>
        <time>2014-11-15T08:55:46Z</time>
      </trkpt>
      <trkpt lat="43.81945" lon="3.73769">
        <ele>175.57788085938</ele>
        <time>2014-11-15T08:55:59Z</time>
      </trkpt>
      <trkpt lat="43.81948" lon="3.73765">
        <ele>175.57788085938</ele>
        <time>2014-11-15T08:56:01Z</time>
      </trkpt>
      <trkpt lat="43.81955" lon="3.73757">
        <ele>175.57788085938</ele>
        <time>2014-11-15T08:56:16Z</time>
      </trkpt>
      <trkpt lat="43.81956" lon="3.73753">
        <ele>176.05859375</ele>
        <time>2014-11-15T08:56:27Z</time>
      </trkpt>
      <trkpt lat="43.81961" lon="3.73743">
        <ele>176.53930664062</ele>
        <time>2014-11-15T08:56:38Z</time>
      </trkpt>
      <trkpt lat="43.81965" lon="3.73734">
        <ele>177.02001953125</ele>
        <time>2014-11-15T08:56:49Z</time>
      </trkpt>
      <trkpt lat="43.81971" lon="3.73728">
        <ele>178.4619140625</ele>
        <time>2014-11-15T08:57:00Z</time>
      </trkpt>
      <trkpt lat="43.81972" lon="3.73717">
        <ele>179.42321777344</ele>
        <time>2014-11-15T08:57:11Z</time>
      </trkpt>
      <trkpt lat="43.8197" lon="3.73713">
        <ele>179.42321777344</ele>
        <time>2014-11-15T08:57:24Z</time>
      </trkpt>
      <trkpt lat="43.81969" lon="3.73708">
        <ele>179.90380859375</ele>
        <time>2014-11-15T08:57:47Z</time>
      </trkpt>
      <trkpt lat="43.81964" lon="3.73705">
        <ele>180.865234375</ele>
        <time>2014-11-15T08:58:25Z</time>
      </trkpt>
      <trkpt lat="43.81965" lon="3.73701">
        <ele>180.865234375</ele>
        <time>2014-11-15T08:58:32Z</time>
      </trkpt>
      <trkpt lat="43.81967" lon="3.73693">
        <ele>179.90380859375</ele>
        <time>2014-11-15T08:58:42Z</time>
      </trkpt>
      <trkpt lat="43.81968" lon="3.73683">
        <ele>180.865234375</ele>
        <time>2014-11-15T08:58:53Z</time>
      </trkpt>
      <trkpt lat="43.81967" lon="3.73672">
        <ele>181.34582519531</ele>
        <time>2014-11-15T08:59:04Z</time>
      </trkpt>
      <trkpt lat="43.8197" lon="3.73659">
        <ele>181.82641601562</ele>
        <time>2014-11-15T08:59:18Z</time>
      </trkpt>
      <trkpt lat="43.81967" lon="3.73649">
        <ele>181.34582519531</ele>
        <time>2014-11-15T08:59:28Z</time>
      </trkpt>
      <trkpt lat="43.81964" lon="3.73638">
        <ele>181.34582519531</ele>
        <time>2014-11-15T08:59:40Z</time>
      </trkpt>
      <trkpt lat="43.81961" lon="3.73629">
        <ele>181.34582519531</ele>
        <time>2014-11-15T08:59:50Z</time>
      </trkpt>
      <trkpt lat="43.81956" lon="3.73627">
        <ele>180.865234375</ele>
        <time>2014-11-15T08:59:54Z</time>
      </trkpt>
      <trkpt lat="43.8195" lon="3.7361">
        <ele>180.38452148438</ele>
        <time>2014-11-15T09:00:09Z</time>
      </trkpt>
      <trkpt lat="43.81954" lon="3.73611">
        <ele>181.34582519531</ele>
        <time>2014-11-15T09:00:19Z</time>
      </trkpt>
      <trkpt lat="43.81954" lon="3.73603">
        <ele>181.34582519531</ele>
        <time>2014-11-15T09:00:26Z</time>
      </trkpt>
      <trkpt lat="43.81954" lon="3.73596">
        <ele>182.30712890625</ele>
        <time>2014-11-15T09:00:37Z</time>
      </trkpt>
      <trkpt lat="43.81952" lon="3.73593">
        <ele>182.78784179688</ele>
        <time>2014-11-15T09:00:50Z</time>
      </trkpt>
      <trkpt lat="43.81951" lon="3.73582">
        <ele>185.19116210938</ele>
        <time>2014-11-15T09:01:05Z</time>
      </trkpt>
      <trkpt lat="43.81952" lon="3.73577">
        <ele>186.63317871094</ele>
        <time>2014-11-15T09:01:14Z</time>
      </trkpt>
      <trkpt lat="43.81946" lon="3.73576">
        <ele>187.59436035156</ele>
        <time>2014-11-15T09:01:22Z</time>
      </trkpt>
      <trkpt lat="43.8194" lon="3.73574">
        <ele>189.99768066406</ele>
        <time>2014-11-15T09:02:01Z</time>
      </trkpt>
      <trkpt lat="43.81934" lon="3.73569">
        <ele>190.47839355469</ele>
        <time>2014-11-15T09:02:17Z</time>
      </trkpt>
      <trkpt lat="43.81948" lon="3.73562">
        <ele>192.88171386719</ele>
        <time>2014-11-15T09:03:50Z</time>
      </trkpt>
      <trkpt lat="43.81938" lon="3.73564">
        <ele>195.28491210938</ele>
        <time>2014-11-15T09:04:33Z</time>
      </trkpt>
      <trkpt lat="43.81944" lon="3.7355">
        <ele>197.68823242188</ele>
        <time>2014-11-15T09:05:07Z</time>
      </trkpt>
      <trkpt lat="43.81953" lon="3.73538">
        <ele>199.61083984375</ele>
        <time>2014-11-15T09:05:21Z</time>
      </trkpt>
      <trkpt lat="43.81961" lon="3.73526">
        <ele>204.41748046875</ele>
        <time>2014-11-15T09:05:40Z</time>
      </trkpt>
      <trkpt lat="43.81964" lon="3.73511">
        <ele>207.78210449219</ele>
        <time>2014-11-15T09:05:59Z</time>
      </trkpt>
      <trkpt lat="43.81966" lon="3.73503">
        <ele>208.74340820312</ele>
        <time>2014-11-15T09:06:08Z</time>
      </trkpt>
      <trkpt lat="43.81972" lon="3.73491">
        <ele>210.666015625</ele>
        <time>2014-11-15T09:06:22Z</time>
      </trkpt>
      <trkpt lat="43.81989" lon="3.73475">
        <ele>213.55004882812</ele>
        <time>2014-11-15T09:06:47Z</time>
      </trkpt>
      <trkpt lat="43.81992" lon="3.7347">
        <ele>214.99194335938</ele>
        <time>2014-11-15T09:06:59Z</time>
      </trkpt>
      <trkpt lat="43.81998" lon="3.73463">
        <ele>216.43395996094</ele>
        <time>2014-11-15T09:07:12Z</time>
      </trkpt>
      <trkpt lat="43.81998" lon="3.73453">
        <ele>219.31799316406</ele>
        <time>2014-11-15T09:07:32Z</time>
      </trkpt>
      <trkpt lat="43.81999" lon="3.73446">
        <ele>219.79858398438</ele>
        <time>2014-11-15T09:07:46Z</time>
      </trkpt>
      <trkpt lat="43.82002" lon="3.73442">
        <ele>220.75988769531</ele>
        <time>2014-11-15T09:08:00Z</time>
      </trkpt>
      <trkpt lat="43.82008" lon="3.73434">
        <ele>221.72119140625</ele>
        <time>2014-11-15T09:08:31Z</time>
      </trkpt>
      <trkpt lat="43.82007" lon="3.73427">
        <ele>222.20178222656</ele>
        <time>2014-11-15T09:08:50Z</time>
      </trkpt>
      <trkpt lat="43.82001" lon="3.73425">
        <ele>222.68249511719</ele>
        <time>2014-11-15T09:09:12Z</time>
      </trkpt>
      <trkpt lat="43.82" lon="3.73422">
        <ele>223.64379882812</ele>
        <time>2014-11-15T09:09:57Z</time>
      </trkpt>
      <trkpt lat="43.82007" lon="3.73424">
        <ele>224.12451171875</ele>
        <time>2014-11-15T09:10:26Z</time>
      </trkpt>
      <trkpt lat="43.82012" lon="3.73427">
        <ele>224.60522460938</ele>
        <time>2014-11-15T09:11:04Z</time>
      </trkpt>
      <trkpt lat="43.82005" lon="3.73424">
        <ele>225.56652832031</ele>
        <time>2014-11-15T09:11:44Z</time>
      </trkpt>
      <trkpt lat="43.82003" lon="3.73415">
        <ele>229.89233398438</ele>
        <time>2014-11-15T09:12:30Z</time>
      </trkpt>
      <trkpt lat="43.8201" lon="3.73407">
        <ele>232.77648925781</ele>
        <time>2014-11-15T09:12:44Z</time>
      </trkpt>
      <trkpt lat="43.82021" lon="3.73399">
        <ele>235.66027832031</ele>
        <time>2014-11-15T09:13:02Z</time>
      </trkpt>
      <trkpt lat="43.82029" lon="3.7339">
        <ele>239.98620605469</ele>
        <time>2014-11-15T09:13:27Z</time>
      </trkpt>
      <trkpt lat="43.82038" lon="3.73387">
        <ele>244.31225585938</ele>
        <time>2014-11-15T09:13:45Z</time>
      </trkpt>
      <trkpt lat="43.8204" lon="3.73375">
        <ele>244.79284667969</ele>
        <time>2014-11-15T09:13:59Z</time>
      </trkpt>
      <trkpt lat="43.8204" lon="3.73362">
        <ele>245.75415039062</ele>
        <time>2014-11-15T09:14:10Z</time>
      </trkpt>
      <trkpt lat="43.82044" lon="3.73346">
        <ele>246.23486328125</ele>
        <time>2014-11-15T09:14:22Z</time>
      </trkpt>
      <trkpt lat="43.8205" lon="3.73334">
        <ele>248.15759277344</ele>
        <time>2014-11-15T09:14:35Z</time>
      </trkpt>
      <trkpt lat="43.82053" lon="3.73322">
        <ele>249.59948730469</ele>
        <time>2014-11-15T09:14:45Z</time>
      </trkpt>
      <trkpt lat="43.82061" lon="3.73309">
        <ele>252.00280761719</ele>
        <time>2014-11-15T09:14:57Z</time>
      </trkpt>
      <trkpt lat="43.82066" lon="3.73299">
        <ele>253.44470214844</ele>
        <time>2014-11-15T09:15:10Z</time>
      </trkpt>
      <trkpt lat="43.82062" lon="3.73285">
        <ele>255.36730957031</ele>
        <time>2014-11-15T09:15:21Z</time>
      </trkpt>
      <trkpt lat="43.82063" lon="3.73282">
        <ele>255.36730957031</ele>
        <time>2014-11-15T09:15:23Z</time>
      </trkpt>
      <trkpt lat="43.82065" lon="3.73273">
        <ele>255.36730957031</ele>
        <time>2014-11-15T09:15:29Z</time>
      </trkpt>
      <trkpt lat="43.82066" lon="3.73267">
        <ele>255.84802246094</ele>
        <time>2014-11-15T09:15:35Z</time>
      </trkpt>
      <trkpt lat="43.82061" lon="3.7326">
        <ele>256.80932617188</ele>
        <time>2014-11-15T09:15:41Z</time>
      </trkpt>
      <trkpt lat="43.82053" lon="3.73259">
        <ele>258.73193359375</ele>
        <time>2014-11-15T09:15:49Z</time>
      </trkpt>
      <trkpt lat="43.82049" lon="3.73268">
        <ele>260.17395019531</ele>
        <time>2014-11-15T09:16:00Z</time>
      </trkpt>
      <trkpt lat="43.82038" lon="3.73279">
        <ele>260.17395019531</ele>
        <time>2014-11-15T09:16:14Z</time>
      </trkpt>
      <trkpt lat="43.82033" lon="3.7328">
        <ele>264.01928710938</ele>
        <time>2014-11-15T09:16:36Z</time>
      </trkpt>
      <trkpt lat="43.82028" lon="3.73274">
        <ele>261.61596679688</ele>
        <time>2014-11-15T09:16:40Z</time>
      </trkpt>
      <trkpt lat="43.82026" lon="3.73259">
        <ele>259.693359375</ele>
        <time>2014-11-15T09:16:55Z</time>
      </trkpt>
      <trkpt lat="43.82023" lon="3.73245">
        <ele>257.2900390625</ele>
        <time>2014-11-15T09:17:09Z</time>
      </trkpt>
      <trkpt lat="43.82022" lon="3.73234">
        <ele>255.84802246094</ele>
        <time>2014-11-15T09:17:25Z</time>
      </trkpt>
      <trkpt lat="43.82016" lon="3.73225">
        <ele>256.32873535156</ele>
        <time>2014-11-15T09:17:36Z</time>
      </trkpt>
      <trkpt lat="43.82009" lon="3.73217">
        <ele>255.84802246094</ele>
        <time>2014-11-15T09:17:47Z</time>
      </trkpt>
      <trkpt lat="43.82007" lon="3.73211">
        <ele>256.80932617188</ele>
        <time>2014-11-15T09:17:58Z</time>
      </trkpt>
      <trkpt lat="43.82" lon="3.73205">
        <ele>254.88659667969</ele>
        <time>2014-11-15T09:18:26Z</time>
      </trkpt>
      <trkpt lat="43.81999" lon="3.73193">
        <ele>252.96398925781</ele>
        <time>2014-11-15T09:19:18Z</time>
      </trkpt>
      <trkpt lat="43.81989" lon="3.73193">
        <ele>249.11877441406</ele>
        <time>2014-11-15T09:19:33Z</time>
      </trkpt>
      <trkpt lat="43.81981" lon="3.73179">
        <ele>245.75415039062</ele>
        <time>2014-11-15T09:19:59Z</time>
      </trkpt>
      <trkpt lat="43.81974" lon="3.73171">
        <ele>244.79284667969</ele>
        <time>2014-11-15T09:20:19Z</time>
      </trkpt>
      <trkpt lat="43.81972" lon="3.73158">
        <ele>246.23486328125</ele>
        <time>2014-11-15T09:20:32Z</time>
      </trkpt>
      <trkpt lat="43.81972" lon="3.73143">
        <ele>246.71545410156</ele>
        <time>2014-11-15T09:20:44Z</time>
      </trkpt>
      <trkpt lat="43.81984" lon="3.73139">
        <ele>244.79284667969</ele>
        <time>2014-11-15T09:20:55Z</time>
      </trkpt>
      <trkpt lat="43.81988" lon="3.73143">
        <ele>243.35083007812</ele>
        <time>2014-11-15T09:21:09Z</time>
      </trkpt>
      <trkpt lat="43.81979" lon="3.7314">
        <ele>239.50549316406</ele>
        <time>2014-11-15T09:21:35Z</time>
      </trkpt>
      <trkpt lat="43.81977" lon="3.73137">
        <ele>238.54431152344</ele>
        <time>2014-11-15T09:21:52Z</time>
      </trkpt>
      <trkpt lat="43.81978" lon="3.73133">
        <ele>236.62170410156</ele>
        <time>2014-11-15T09:22:10Z</time>
      </trkpt>
      <trkpt lat="43.81982" lon="3.73118">
        <ele>232.77648925781</ele>
        <time>2014-11-15T09:22:28Z</time>
      </trkpt>
      <trkpt lat="43.81987" lon="3.73114">
        <ele>227.00854492188</ele>
        <time>2014-11-15T09:22:51Z</time>
      </trkpt>
      <trkpt lat="43.81976" lon="3.7311">
        <ele>218.35656738281</ele>
        <time>2014-11-15T09:23:21Z</time>
      </trkpt>
      <trkpt lat="43.81973" lon="3.73112">
        <ele>211.14672851562</ele>
        <time>2014-11-15T09:23:45Z</time>
      </trkpt>
      <trkpt lat="43.81979" lon="3.73098">
        <ele>196.72692871094</ele>
        <time>2014-11-15T09:24:49Z</time>
      </trkpt>
      <trkpt lat="43.81986" lon="3.73099">
        <ele>189.99768066406</ele>
        <time>2014-11-15T09:25:14Z</time>
      </trkpt>
      <trkpt lat="43.81991" lon="3.73107">
        <ele>184.71057128906</ele>
        <time>2014-11-15T09:25:43Z</time>
      </trkpt>
      <trkpt lat="43.81994" lon="3.73109">
        <ele>180.38452148438</ele>
        <time>2014-11-15T09:26:05Z</time>
      </trkpt>
      <trkpt lat="43.81984" lon="3.73107">
        <ele>178.4619140625</ele>
        <time>2014-11-15T09:26:35Z</time>
      </trkpt>
      <trkpt lat="43.81986" lon="3.73108">
        <ele>175.09729003906</ele>
        <time>2014-11-15T09:26:55Z</time>
      </trkpt>
      <trkpt lat="43.81993" lon="3.73101">
        <ele>172.69396972656</ele>
        <time>2014-11-15T09:27:17Z</time>
      </trkpt>
      <trkpt lat="43.81988" lon="3.73103">
        <ele>165.48413085938</ele>
        <time>2014-11-15T09:28:08Z</time>
      </trkpt>
      <trkpt lat="43.8198" lon="3.73096">
        <ele>160.19689941406</ele>
        <time>2014-11-15T09:29:02Z</time>
      </trkpt>
      <trkpt lat="43.81986" lon="3.7309">
        <ele>158.75476074219</ele>
        <time>2014-11-15T09:29:45Z</time>
      </trkpt>
      <trkpt lat="43.81985" lon="3.73075">
        <ele>161.63891601562</ele>
        <time>2014-11-15T09:30:22Z</time>
      </trkpt>
      <trkpt lat="43.81986" lon="3.73071">
        <ele>163.08081054688</ele>
        <time>2014-11-15T09:30:45Z</time>
      </trkpt>
      <trkpt lat="43.81991" lon="3.73057">
        <ele>164.52270507812</ele>
        <time>2014-11-15T09:31:08Z</time>
      </trkpt>
      <trkpt lat="43.81993" lon="3.7305">
        <ele>165.00341796875</ele>
        <time>2014-11-15T09:31:35Z</time>
      </trkpt>
      <trkpt lat="43.81991" lon="3.73038">
        <ele>166.92602539062</ele>
        <time>2014-11-15T09:31:48Z</time>
      </trkpt>
      <trkpt lat="43.81988" lon="3.73028">
        <ele>168.84875488281</ele>
        <time>2014-11-15T09:32:08Z</time>
      </trkpt>
      <trkpt lat="43.81986" lon="3.73042">
        <ele>170.77136230469</ele>
        <time>2014-11-15T09:32:42Z</time>
      </trkpt>
      <trkpt lat="43.81992" lon="3.73046">
        <ele>173.17468261719</ele>
        <time>2014-11-15T09:33:05Z</time>
      </trkpt>
      <trkpt lat="43.81993" lon="3.73036">
        <ele>167.88732910156</ele>
        <time>2014-11-15T09:34:08Z</time>
      </trkpt>
      <trkpt lat="43.81989" lon="3.73036">
        <ele>167.88732910156</ele>
        <time>2014-11-15T09:34:32Z</time>
      </trkpt>
      <trkpt lat="43.81987" lon="3.73038">
        <ele>168.84875488281</ele>
        <time>2014-11-15T09:34:50Z</time>
      </trkpt>
      <trkpt lat="43.81995" lon="3.73035">
        <ele>168.36804199219</ele>
        <time>2014-11-15T09:35:08Z</time>
      </trkpt>
      <trkpt lat="43.81995" lon="3.73038">
        <ele>169.32946777344</ele>
        <time>2014-11-15T09:35:54Z</time>
      </trkpt>
      <trkpt lat="43.81989" lon="3.7304">
        <ele>168.84875488281</ele>
        <time>2014-11-15T09:36:45Z</time>
      </trkpt>
      <trkpt lat="43.81985" lon="3.73034">
        <ele>167.88732910156</ele>
        <time>2014-11-15T09:37:19Z</time>
      </trkpt>
      <trkpt lat="43.81991" lon="3.7304">
        <ele>167.88732910156</ele>
        <time>2014-11-15T09:37:42Z</time>
      </trkpt>
      <trkpt lat="43.81988" lon="3.73045">
        <ele>167.40673828125</ele>
        <time>2014-11-15T09:38:04Z</time>
      </trkpt>
      <trkpt lat="43.81978" lon="3.73046">
        <ele>165.48413085938</ele>
        <time>2014-11-15T09:38:20Z</time>
      </trkpt>
      <trkpt lat="43.8198" lon="3.73042">
        <ele>163.5615234375</ele>
        <time>2014-11-15T09:38:39Z</time>
      </trkpt>
      <trkpt lat="43.81994" lon="3.73046">
        <ele>163.08081054688</ele>
        <time>2014-11-15T09:38:56Z</time>
      </trkpt>
      <trkpt lat="43.81999" lon="3.73045">
        <ele>161.158203125</ele>
        <time>2014-11-15T09:39:19Z</time>
      </trkpt>
      <trkpt lat="43.81988" lon="3.73047">
        <ele>159.71618652344</ele>
        <time>2014-11-15T09:39:52Z</time>
      </trkpt>
      <trkpt lat="43.81996" lon="3.73042">
        <ele>157.79357910156</ele>
        <time>2014-11-15T09:40:11Z</time>
      </trkpt>
      <trkpt lat="43.82003" lon="3.73039">
        <ele>156.83215332031</ele>
        <time>2014-11-15T09:40:29Z</time>
      </trkpt>
      <trkpt lat="43.82004" lon="3.73043">
        <ele>154.90954589844</ele>
        <time>2014-11-15T09:40:51Z</time>
      </trkpt>
      <trkpt lat="43.81998" lon="3.73048">
        <ele>153.94836425781</ele>
        <time>2014-11-15T09:41:27Z</time>
      </trkpt>
      <trkpt lat="43.81981" lon="3.73048">
        <ele>154.90954589844</ele>
        <time>2014-11-15T09:42:02Z</time>
      </trkpt>
      <trkpt lat="43.81982" lon="3.73045">
        <ele>156.3515625</ele>
        <time>2014-11-15T09:42:15Z</time>
      </trkpt>
      <trkpt lat="43.81987" lon="3.73048">
        <ele>158.27416992188</ele>
        <time>2014-11-15T09:42:40Z</time>
      </trkpt>
      <trkpt lat="43.81994" lon="3.73042">
        <ele>160.19689941406</ele>
        <time>2014-11-15T09:43:07Z</time>
      </trkpt>
      <trkpt lat="43.81992" lon="3.73046">
        <ele>162.11950683594</ele>
        <time>2014-11-15T09:43:28Z</time>
      </trkpt>
      <trkpt lat="43.81985" lon="3.73049">
        <ele>162.11950683594</ele>
        <time>2014-11-15T09:44:03Z</time>
      </trkpt>
      <trkpt lat="43.81995" lon="3.73043">
        <ele>161.63891601562</ele>
        <time>2014-11-15T09:44:44Z</time>
      </trkpt>
      <trkpt lat="43.81994" lon="3.73037">
        <ele>165.00341796875</ele>
        <time>2014-11-15T09:45:04Z</time>
      </trkpt>
      <trkpt lat="43.81998" lon="3.73035">
        <ele>165.96472167969</ele>
        <time>2014-11-15T09:45:37Z</time>
      </trkpt>
      <trkpt lat="43.81991" lon="3.73024">
        <ele>166.92602539062</ele>
        <time>2014-11-15T09:46:18Z</time>
      </trkpt>
      <trkpt lat="43.81994" lon="3.73017">
        <ele>168.84875488281</ele>
        <time>2014-11-15T09:46:43Z</time>
      </trkpt>
      <trkpt lat="43.81986" lon="3.73011">
        <ele>167.40673828125</ele>
        <time>2014-11-15T09:47:05Z</time>
      </trkpt>
      <trkpt lat="43.81988" lon="3.73005">
        <ele>165.96472167969</ele>
        <time>2014-11-15T09:48:27Z</time>
      </trkpt>
      <trkpt lat="43.81989" lon="3.73002">
        <ele>165.96472167969</ele>
        <time>2014-11-15T09:48:52Z</time>
      </trkpt>
      <trkpt lat="43.81979" lon="3.72988">
        <ele>166.4453125</ele>
        <time>2014-11-15T09:50:05Z</time>
      </trkpt>
      <trkpt lat="43.81979" lon="3.72982">
        <ele>166.4453125</ele>
        <time>2014-11-15T09:50:29Z</time>
      </trkpt>
      <trkpt lat="43.81979" lon="3.72972">
        <ele>163.5615234375</ele>
        <time>2014-11-15T09:51:29Z</time>
      </trkpt>
      <trkpt lat="43.81976" lon="3.72969">
        <ele>160.67749023438</ele>
        <time>2014-11-15T09:52:01Z</time>
      </trkpt>
      <trkpt lat="43.81974" lon="3.72975">
        <ele>157.79357910156</ele>
        <time>2014-11-15T09:53:04Z</time>
      </trkpt>
      <trkpt lat="43.81979" lon="3.72967">
        <ele>156.83215332031</ele>
        <time>2014-11-15T09:53:30Z</time>
      </trkpt>
      <trkpt lat="43.81985" lon="3.72953">
        <ele>155.39025878906</ele>
        <time>2014-11-15T09:54:02Z</time>
      </trkpt>
      <trkpt lat="43.81989" lon="3.72949">
        <ele>154.90954589844</ele>
        <time>2014-11-15T09:54:24Z</time>
      </trkpt>
      <trkpt lat="43.81984" lon="3.72948">
        <ele>153.94836425781</ele>
        <time>2014-11-15T09:54:48Z</time>
      </trkpt>
      <trkpt lat="43.81976" lon="3.72945">
        <ele>153.46765136719</ele>
        <time>2014-11-15T09:55:06Z</time>
      </trkpt>
      <trkpt lat="43.81979" lon="3.72951">
        <ele>152.02575683594</ele>
        <time>2014-11-15T09:55:50Z</time>
      </trkpt>
      <trkpt lat="43.81983" lon="3.72943">
        <ele>150.58361816406</ele>
        <time>2014-11-15T09:56:33Z</time>
      </trkpt>
      <trkpt lat="43.8199" lon="3.72948">
        <ele>150.10302734375</ele>
        <time>2014-11-15T09:57:08Z</time>
      </trkpt>
      <trkpt lat="43.81996" lon="3.72942">
        <ele>148.18041992188</ele>
        <time>2014-11-15T09:57:38Z</time>
      </trkpt>
      <trkpt lat="43.81996" lon="3.72935">
        <ele>147.21899414062</ele>
        <time>2014-11-15T09:58:01Z</time>
      </trkpt>
      <trkpt lat="43.81995" lon="3.72944">
        <ele>144.33520507812</ele>
        <time>2014-11-15T09:59:31Z</time>
      </trkpt>
      <trkpt lat="43.81987" lon="3.72947">
        <ele>143.37365722656</ele>
        <time>2014-11-15T09:59:57Z</time>
      </trkpt>
      <trkpt lat="43.81992" lon="3.72947">
        <ele>140.97045898438</ele>
        <time>2014-11-15T10:00:17Z</time>
      </trkpt>
      <trkpt lat="43.82005" lon="3.72933">
        <ele>138.56726074219</ele>
        <time>2014-11-15T10:01:23Z</time>
      </trkpt>
      <trkpt lat="43.82016" lon="3.72923">
        <ele>137.12524414062</ele>
        <time>2014-11-15T10:01:43Z</time>
      </trkpt>
      <trkpt lat="43.8201" lon="3.72916">
        <ele>138.08654785156</ele>
        <time>2014-11-15T10:02:16Z</time>
      </trkpt>
      <trkpt lat="43.82022" lon="3.72923">
        <ele>137.12524414062</ele>
        <time>2014-11-15T10:02:40Z</time>
      </trkpt>
      <trkpt lat="43.82035" lon="3.7291">
        <ele>138.08654785156</ele>
        <time>2014-11-15T10:02:55Z</time>
      </trkpt>
      <trkpt lat="43.82042" lon="3.72902">
        <ele>138.56726074219</ele>
        <time>2014-11-15T10:03:10Z</time>
      </trkpt>
      <trkpt lat="43.82047" lon="3.72889">
        <ele>140.48986816406</ele>
        <time>2014-11-15T10:03:31Z</time>
      </trkpt>
      <trkpt lat="43.82047" lon="3.72884">
        <ele>141.45104980469</ele>
        <time>2014-11-15T10:03:45Z</time>
      </trkpt>
      <trkpt lat="43.82063" lon="3.72886">
        <ele>141.45104980469</ele>
        <time>2014-11-15T10:04:05Z</time>
      </trkpt>
      <trkpt lat="43.82079" lon="3.72881">
        <ele>141.45104980469</ele>
        <time>2014-11-15T10:04:17Z</time>
      </trkpt>
      <trkpt lat="43.82095" lon="3.72878">
        <ele>143.85437011719</ele>
        <time>2014-11-15T10:04:40Z</time>
      </trkpt>
      <trkpt lat="43.82097" lon="3.72873">
        <ele>143.85437011719</ele>
        <time>2014-11-15T10:04:57Z</time>
      </trkpt>
      <trkpt lat="43.82111" lon="3.72875">
        <ele>144.81579589844</ele>
        <time>2014-11-15T10:05:20Z</time>
      </trkpt>
      <trkpt lat="43.82126" lon="3.72868">
        <ele>145.77709960938</ele>
        <time>2014-11-15T10:05:49Z</time>
      </trkpt>
      <trkpt lat="43.82126" lon="3.72863">
        <ele>145.77709960938</ele>
        <time>2014-11-15T10:05:59Z</time>
      </trkpt>
      <trkpt lat="43.82137" lon="3.72856">
        <ele>148.18041992188</ele>
        <time>2014-11-15T10:06:25Z</time>
      </trkpt>
      <trkpt lat="43.82148" lon="3.72843">
        <ele>150.10302734375</ele>
        <time>2014-11-15T10:06:47Z</time>
      </trkpt>
      <trkpt lat="43.82152" lon="3.72844">
        <ele>156.3515625</ele>
        <time>2014-11-15T10:07:08Z</time>
      </trkpt>
      <trkpt lat="43.82153" lon="3.72849">
        <ele>158.75476074219</ele>
        <time>2014-11-15T10:07:27Z</time>
      </trkpt>
      <trkpt lat="43.8216" lon="3.72858">
        <ele>161.158203125</ele>
        <time>2014-11-15T10:07:42Z</time>
      </trkpt>
      <trkpt lat="43.82165" lon="3.72862">
        <ele>162.11950683594</ele>
        <time>2014-11-15T10:07:54Z</time>
      </trkpt>
      <trkpt lat="43.82169" lon="3.72861">
        <ele>163.08081054688</ele>
        <time>2014-11-15T10:08:10Z</time>
      </trkpt>
      <trkpt lat="43.8217" lon="3.72863">
        <ele>164.04211425781</ele>
        <time>2014-11-15T10:08:28Z</time>
      </trkpt>
      <trkpt lat="43.82173" lon="3.72866">
        <ele>166.4453125</ele>
        <time>2014-11-15T10:08:52Z</time>
      </trkpt>
      <trkpt lat="43.82176" lon="3.72865">
        <ele>169.81005859375</ele>
        <time>2014-11-15T10:09:16Z</time>
      </trkpt>
      <trkpt lat="43.82193" lon="3.72861">
        <ele>174.61657714844</ele>
        <time>2014-11-15T10:09:29Z</time>
      </trkpt>
      <trkpt lat="43.82205" lon="3.72862">
        <ele>181.34582519531</ele>
        <time>2014-11-15T10:09:43Z</time>
      </trkpt>
      <trkpt lat="43.82199" lon="3.72865">
        <ele>184.71057128906</ele>
        <time>2014-11-15T10:09:58Z</time>
      </trkpt>
      <trkpt lat="43.82198" lon="3.72855">
        <ele>190.958984375</ele>
        <time>2014-11-15T10:10:42Z</time>
      </trkpt>
      <trkpt lat="43.82208" lon="3.72845">
        <ele>189.99768066406</ele>
        <time>2014-11-15T10:11:06Z</time>
      </trkpt>
      <trkpt lat="43.8221" lon="3.72846">
        <ele>193.84301757812</ele>
        <time>2014-11-15T10:11:24Z</time>
      </trkpt>
      <trkpt lat="43.82212" lon="3.72847">
        <ele>193.3623046875</ele>
        <time>2014-11-15T10:11:40Z</time>
      </trkpt>
      <trkpt lat="43.82208" lon="3.72836">
        <ele>189.51696777344</ele>
        <time>2014-11-15T10:12:00Z</time>
      </trkpt>
      <trkpt lat="43.822" lon="3.72836">
        <ele>188.07507324219</ele>
        <time>2014-11-15T10:12:15Z</time>
      </trkpt>
      <trkpt lat="43.82204" lon="3.72846">
        <ele>187.11376953125</ele>
        <time>2014-11-15T10:12:28Z</time>
      </trkpt>
      <trkpt lat="43.82206" lon="3.72846">
        <ele>185.19116210938</ele>
        <time>2014-11-15T10:12:54Z</time>
      </trkpt>
      <trkpt lat="43.82216" lon="3.72853">
        <ele>183.7490234375</ele>
        <time>2014-11-15T10:13:14Z</time>
      </trkpt>
      <trkpt lat="43.82234" lon="3.72873">
        <ele>181.82641601562</ele>
        <time>2014-11-15T10:13:39Z</time>
      </trkpt>
      <trkpt lat="43.82238" lon="3.72869">
        <ele>181.34582519531</ele>
        <time>2014-11-15T10:13:51Z</time>
      </trkpt>
      <trkpt lat="43.82248" lon="3.72866">
        <ele>180.38452148438</ele>
        <time>2014-11-15T10:14:08Z</time>
      </trkpt>
      <trkpt lat="43.82266" lon="3.72861">
        <ele>177.98120117188</ele>
        <time>2014-11-15T10:14:32Z</time>
      </trkpt>
      <trkpt lat="43.82278" lon="3.72848">
        <ele>177.98120117188</ele>
        <time>2014-11-15T10:14:55Z</time>
      </trkpt>
      <trkpt lat="43.82277" lon="3.72841">
        <ele>174.61657714844</ele>
        <time>2014-11-15T10:15:11Z</time>
      </trkpt>
      <trkpt lat="43.82289" lon="3.72863">
        <ele>174.13586425781</ele>
        <time>2014-11-15T10:15:33Z</time>
      </trkpt>
      <trkpt lat="43.82306" lon="3.72873">
        <ele>173.6552734375</ele>
        <time>2014-11-15T10:15:53Z</time>
      </trkpt>
      <trkpt lat="43.82312" lon="3.72865">
        <ele>174.13586425781</ele>
        <time>2014-11-15T10:16:05Z</time>
      </trkpt>
      <trkpt lat="43.82314" lon="3.72858">
        <ele>174.13586425781</ele>
        <time>2014-11-15T10:16:14Z</time>
      </trkpt>
      <trkpt lat="43.82319" lon="3.72852">
        <ele>174.61657714844</ele>
        <time>2014-11-15T10:16:28Z</time>
      </trkpt>
      <trkpt lat="43.82315" lon="3.72833">
        <ele>176.53930664062</ele>
        <time>2014-11-15T10:16:44Z</time>
      </trkpt>
      <trkpt lat="43.82317" lon="3.72816">
        <ele>178.4619140625</ele>
        <time>2014-11-15T10:16:59Z</time>
      </trkpt>
      <trkpt lat="43.82333" lon="3.72828">
        <ele>178.4619140625</ele>
        <time>2014-11-15T10:17:13Z</time>
      </trkpt>
      <trkpt lat="43.82353" lon="3.72836">
        <ele>178.4619140625</ele>
        <time>2014-11-15T10:17:30Z</time>
      </trkpt>
      <trkpt lat="43.8236" lon="3.72844">
        <ele>177.98120117188</ele>
        <time>2014-11-15T10:17:38Z</time>
      </trkpt>
      <trkpt lat="43.82362" lon="3.72844">
        <ele>177.02001953125</ele>
        <time>2014-11-15T10:17:54Z</time>
      </trkpt>
      <trkpt lat="43.82378" lon="3.72882">
        <ele>176.05859375</ele>
        <time>2014-11-15T10:18:42Z</time>
      </trkpt>
      <trkpt lat="43.8238" lon="3.72881">
        <ele>175.09729003906</ele>
        <time>2014-11-15T10:18:59Z</time>
      </trkpt>
      <trkpt lat="43.82366" lon="3.72855">
        <ele>174.13586425781</ele>
        <time>2014-11-15T10:19:25Z</time>
      </trkpt>
      <trkpt lat="43.8237" lon="3.7286">
        <ele>173.6552734375</ele>
        <time>2014-11-15T10:19:43Z</time>
      </trkpt>
      <trkpt lat="43.82371" lon="3.72858">
        <ele>171.73266601562</ele>
        <time>2014-11-15T10:20:52Z</time>
      </trkpt>
      <trkpt lat="43.82376" lon="3.72871">
        <ele>171.73266601562</ele>
        <time>2014-11-15T10:21:10Z</time>
      </trkpt>
      <trkpt lat="43.82389" lon="3.72889">
        <ele>171.73266601562</ele>
        <time>2014-11-15T10:21:29Z</time>
      </trkpt>
      <trkpt lat="43.824" lon="3.72903">
        <ele>171.25207519531</ele>
        <time>2014-11-15T10:21:43Z</time>
      </trkpt>
      <trkpt lat="43.82401" lon="3.72904">
        <ele>171.25207519531</ele>
        <time>2014-11-15T10:21:45Z</time>
      </trkpt>
      <trkpt lat="43.82396" lon="3.72904">
        <ele>170.77136230469</ele>
        <time>2014-11-15T10:21:54Z</time>
      </trkpt>
      <trkpt lat="43.82397" lon="3.72908">
        <ele>170.29064941406</ele>
        <time>2014-11-15T10:22:00Z</time>
      </trkpt>
      <trkpt lat="43.824" lon="3.72913">
        <ele>169.81005859375</ele>
        <time>2014-11-15T10:22:06Z</time>
      </trkpt>
      <trkpt lat="43.82396" lon="3.72905">
        <ele>169.81005859375</ele>
        <time>2014-11-15T10:22:14Z</time>
      </trkpt>
      <trkpt lat="43.82384" lon="3.72882">
        <ele>169.32946777344</ele>
        <time>2014-11-15T10:22:24Z</time>
      </trkpt>
      <trkpt lat="43.82377" lon="3.72871">
        <ele>170.29064941406</ele>
        <time>2014-11-15T10:22:32Z</time>
      </trkpt>
      <trkpt lat="43.82377" lon="3.72869">
        <ele>170.29064941406</ele>
        <time>2014-11-15T10:22:34Z</time>
      </trkpt>
      <trkpt lat="43.82375" lon="3.72866">
        <ele>171.25207519531</ele>
        <time>2014-11-15T10:22:43Z</time>
      </trkpt>
      <trkpt lat="43.82377" lon="3.72885">
        <ele>171.25207519531</ele>
        <time>2014-11-15T10:23:42Z</time>
      </trkpt>
      <trkpt lat="43.82372" lon="3.72874">
        <ele>171.25207519531</ele>
        <time>2014-11-15T10:23:57Z</time>
      </trkpt>
      <trkpt lat="43.82369" lon="3.72872">
        <ele>173.6552734375</ele>
        <time>2014-11-15T10:25:33Z</time>
      </trkpt>
      <trkpt lat="43.82372" lon="3.72863">
        <ele>176.53930664062</ele>
        <time>2014-11-15T10:26:04Z</time>
      </trkpt>
      <trkpt lat="43.82371" lon="3.72834">
        <ele>178.4619140625</ele>
        <time>2014-11-15T10:26:43Z</time>
      </trkpt>
      <trkpt lat="43.82371" lon="3.72813">
        <ele>180.38452148438</ele>
        <time>2014-11-15T10:27:05Z</time>
      </trkpt>
      <trkpt lat="43.82374" lon="3.72802">
        <ele>181.34582519531</ele>
        <time>2014-11-15T10:27:27Z</time>
      </trkpt>
      <trkpt lat="43.82378" lon="3.72785">
        <ele>184.22985839844</ele>
        <time>2014-11-15T10:27:53Z</time>
      </trkpt>
      <trkpt lat="43.82387" lon="3.72773">
        <ele>186.63317871094</ele>
        <time>2014-11-15T10:28:08Z</time>
      </trkpt>
      <trkpt lat="43.82393" lon="3.72756">
        <ele>188.07507324219</ele>
        <time>2014-11-15T10:28:26Z</time>
      </trkpt>
      <trkpt lat="43.82401" lon="3.7275">
        <ele>190.47839355469</ele>
        <time>2014-11-15T10:28:38Z</time>
      </trkpt>
      <trkpt lat="43.82407" lon="3.72744">
        <ele>193.84301757812</ele>
        <time>2014-11-15T10:29:00Z</time>
      </trkpt>
      <trkpt lat="43.82419" lon="3.72732">
        <ele>194.80432128906</ele>
        <time>2014-11-15T10:29:27Z</time>
      </trkpt>
      <trkpt lat="43.82423" lon="3.72729">
        <ele>196.24633789062</ele>
        <time>2014-11-15T10:29:49Z</time>
      </trkpt>
      <trkpt lat="43.82425" lon="3.72712">
        <ele>198.1689453125</ele>
        <time>2014-11-15T10:30:17Z</time>
      </trkpt>
      <trkpt lat="43.82435" lon="3.727">
        <ele>199.13012695312</ele>
        <time>2014-11-15T10:30:31Z</time>
      </trkpt>
      <trkpt lat="43.82441" lon="3.72697">
        <ele>200.572265625</ele>
        <time>2014-11-15T10:30:50Z</time>
      </trkpt>
      <trkpt lat="43.8245" lon="3.72695">
        <ele>202.01428222656</ele>
        <time>2014-11-15T10:31:15Z</time>
      </trkpt>
      <trkpt lat="43.82461" lon="3.72708">
        <ele>201.53356933594</ele>
        <time>2014-11-15T10:31:37Z</time>
      </trkpt>
      <trkpt lat="43.82472" lon="3.7272">
        <ele>202.49487304688</ele>
        <time>2014-11-15T10:31:57Z</time>
      </trkpt>
      <trkpt lat="43.82481" lon="3.7272">
        <ele>203.93688964844</ele>
        <time>2014-11-15T10:32:08Z</time>
      </trkpt>
      <trkpt lat="43.82494" lon="3.72722">
        <ele>205.37878417969</ele>
        <time>2014-11-15T10:32:33Z</time>
      </trkpt>
      <trkpt lat="43.82507" lon="3.72729">
        <ele>206.34008789062</ele>
        <time>2014-11-15T10:32:56Z</time>
      </trkpt>
      <trkpt lat="43.82514" lon="3.72729">
        <ele>206.82067871094</ele>
        <time>2014-11-15T10:33:12Z</time>
      </trkpt>
      <trkpt lat="43.82518" lon="3.7273">
        <ele>207.78210449219</ele>
        <time>2014-11-15T10:33:27Z</time>
      </trkpt>
      <trkpt lat="43.82526" lon="3.7273">
        <ele>210.18542480469</ele>
        <time>2014-11-15T10:33:47Z</time>
      </trkpt>
      <trkpt lat="43.8253" lon="3.72726">
        <ele>211.62744140625</ele>
        <time>2014-11-15T10:34:07Z</time>
      </trkpt>
      <trkpt lat="43.82535" lon="3.72722">
        <ele>213.0693359375</ele>
        <time>2014-11-15T10:34:30Z</time>
      </trkpt>
      <trkpt lat="43.82547" lon="3.72726">
        <ele>213.0693359375</ele>
        <time>2014-11-15T10:34:51Z</time>
      </trkpt>
      <trkpt lat="43.82552" lon="3.7273">
        <ele>212.58862304688</ele>
        <time>2014-11-15T10:35:02Z</time>
      </trkpt>
      <trkpt lat="43.82566" lon="3.72735">
        <ele>213.0693359375</ele>
        <time>2014-11-15T10:35:23Z</time>
      </trkpt>
      <trkpt lat="43.82575" lon="3.72735">
        <ele>216.43395996094</ele>
        <time>2014-11-15T10:35:48Z</time>
      </trkpt>
      <trkpt lat="43.82587" lon="3.72745">
        <ele>217.39538574219</ele>
        <time>2014-11-15T10:36:13Z</time>
      </trkpt>
      <trkpt lat="43.82595" lon="3.72754">
        <ele>219.79858398438</ele>
        <time>2014-11-15T10:36:34Z</time>
      </trkpt>
      <trkpt lat="43.82606" lon="3.7277">
        <ele>221.72119140625</ele>
        <time>2014-11-15T10:37:08Z</time>
      </trkpt>
      <trkpt lat="43.82619" lon="3.72792">
        <ele>226.04711914062</ele>
        <time>2014-11-15T10:37:32Z</time>
      </trkpt>
      <trkpt lat="43.82623" lon="3.72801">
        <ele>227.48913574219</ele>
        <time>2014-11-15T10:37:58Z</time>
      </trkpt>
      <trkpt lat="43.82636" lon="3.72825">
        <ele>229.41174316406</ele>
        <time>2014-11-15T10:38:23Z</time>
      </trkpt>
      <trkpt lat="43.82645" lon="3.72835">
        <ele>231.33435058594</ele>
        <time>2014-11-15T10:38:42Z</time>
      </trkpt>
      <trkpt lat="43.82654" lon="3.72848">
        <ele>232.29577636719</ele>
        <time>2014-11-15T10:38:59Z</time>
      </trkpt>
      <trkpt lat="43.82666" lon="3.72866">
        <ele>234.69909667969</ele>
        <time>2014-11-15T10:39:39Z</time>
      </trkpt>
      <trkpt lat="43.82687" lon="3.72894">
        <ele>236.14099121094</ele>
        <time>2014-11-15T10:40:16Z</time>
      </trkpt>
      <trkpt lat="43.82698" lon="3.72899">
        <ele>236.62170410156</ele>
        <time>2014-11-15T10:40:29Z</time>
      </trkpt>
      <trkpt lat="43.82706" lon="3.72905">
        <ele>237.10229492188</ele>
        <time>2014-11-15T10:40:54Z</time>
      </trkpt>
      <trkpt lat="43.82692" lon="3.72905">
        <ele>239.50549316406</ele>
        <time>2014-11-15T10:41:36Z</time>
      </trkpt>
      <trkpt lat="43.82689" lon="3.72907">
        <ele>241.42822265625</ele>
        <time>2014-11-15T10:42:00Z</time>
      </trkpt>
      <trkpt lat="43.82702" lon="3.729">
        <ele>244.79284667969</ele>
        <time>2014-11-15T10:43:02Z</time>
      </trkpt>
      <trkpt lat="43.82711" lon="3.72919">
        <ele>247.6767578125</ele>
        <time>2014-11-15T10:44:11Z</time>
      </trkpt>
      <trkpt lat="43.82723" lon="3.72935">
        <ele>247.19604492188</ele>
        <time>2014-11-15T10:44:36Z</time>
      </trkpt>
      <trkpt lat="43.82729" lon="3.7294">
        <ele>246.23486328125</ele>
        <time>2014-11-15T10:45:00Z</time>
      </trkpt>
      <trkpt lat="43.82736" lon="3.72954">
        <ele>245.75415039062</ele>
        <time>2014-11-15T10:45:15Z</time>
      </trkpt>
      <trkpt lat="43.82735" lon="3.72962">
        <ele>245.75415039062</ele>
        <time>2014-11-15T10:45:34Z</time>
      </trkpt>
      <trkpt lat="43.82747" lon="3.72977">
        <ele>244.31225585938</ele>
        <time>2014-11-15T10:46:03Z</time>
      </trkpt>
      <trkpt lat="43.82755" lon="3.72991">
        <ele>245.2734375</ele>
        <time>2014-11-15T10:46:25Z</time>
      </trkpt>
      <trkpt lat="43.82755" lon="3.72999">
        <ele>244.31225585938</ele>
        <time>2014-11-15T10:46:51Z</time>
      </trkpt>
      <trkpt lat="43.82755" lon="3.72991">
        <ele>245.2734375</ele>
        <time>2014-11-15T10:47:24Z</time>
      </trkpt>
      <trkpt lat="43.82757" lon="3.72988">
        <ele>248.15759277344</ele>
        <time>2014-11-15T10:48:30Z</time>
      </trkpt>
      <trkpt lat="43.8277" lon="3.72987">
        <ele>252.00280761719</ele>
        <time>2014-11-15T10:50:18Z</time>
      </trkpt>
      <trkpt lat="43.82782" lon="3.72989">
        <ele>252.4833984375</ele>
        <time>2014-11-15T10:50:29Z</time>
      </trkpt>
      <trkpt lat="43.82797" lon="3.72991">
        <ele>252.96398925781</ele>
        <time>2014-11-15T10:50:48Z</time>
      </trkpt>
      <trkpt lat="43.82809" lon="3.72995">
        <ele>251.04138183594</ele>
        <time>2014-11-15T10:51:05Z</time>
      </trkpt>
      <trkpt lat="43.8282" lon="3.72997">
        <ele>253.92541503906</ele>
        <time>2014-11-15T10:51:28Z</time>
      </trkpt>
      <trkpt lat="43.82833" lon="3.72995">
        <ele>255.36730957031</ele>
        <time>2014-11-15T10:51:55Z</time>
      </trkpt>
      <trkpt lat="43.82849" lon="3.72992">
        <ele>255.36730957031</ele>
        <time>2014-11-15T10:52:20Z</time>
      </trkpt>
      <trkpt lat="43.82856" lon="3.72988">
        <ele>256.32873535156</ele>
        <time>2014-11-15T10:52:33Z</time>
      </trkpt>
      <trkpt lat="43.82868" lon="3.72982">
        <ele>259.693359375</ele>
        <time>2014-11-15T10:52:56Z</time>
      </trkpt>
      <trkpt lat="43.82872" lon="3.72978">
        <ele>261.13525390625</ele>
        <time>2014-11-15T10:53:16Z</time>
      </trkpt>
      <trkpt lat="43.82888" lon="3.72977">
        <ele>261.61596679688</ele>
        <time>2014-11-15T10:53:38Z</time>
      </trkpt>
      <trkpt lat="43.82897" lon="3.7298">
        <ele>267.38391113281</ele>
        <time>2014-11-15T10:54:04Z</time>
      </trkpt>
      <trkpt lat="43.829" lon="3.72986">
        <ele>271.22912597656</ele>
        <time>2014-11-15T10:54:17Z</time>
      </trkpt>
      <trkpt lat="43.82916" lon="3.72992">
        <ele>274.59375</ele>
        <time>2014-11-15T10:54:39Z</time>
      </trkpt>
      <trkpt lat="43.82921" lon="3.72985">
        <ele>277.95825195312</ele>
        <time>2014-11-15T10:54:57Z</time>
      </trkpt>
      <trkpt lat="43.82925" lon="3.72971">
        <ele>279.40026855469</ele>
        <time>2014-11-15T10:55:08Z</time>
      </trkpt>
      <trkpt lat="43.82928" lon="3.72959">
        <ele>280.84240722656</ele>
        <time>2014-11-15T10:55:25Z</time>
      </trkpt>
      <trkpt lat="43.82928" lon="3.72943">
        <ele>283.24560546875</ele>
        <time>2014-11-15T10:55:41Z</time>
      </trkpt>
      <trkpt lat="43.82917" lon="3.7293">
        <ele>285.64880371094</ele>
        <time>2014-11-15T10:55:56Z</time>
      </trkpt>
      <trkpt lat="43.82903" lon="3.72919">
        <ele>287.0908203125</ele>
        <time>2014-11-15T10:56:13Z</time>
      </trkpt>
      <trkpt lat="43.82899" lon="3.72919">
        <ele>287.57141113281</ele>
        <time>2014-11-15T10:56:16Z</time>
      </trkpt>
      <trkpt lat="43.82889" lon="3.72916">
        <ele>288.53295898438</ele>
        <time>2014-11-15T10:56:27Z</time>
      </trkpt>
      <trkpt lat="43.82878" lon="3.72914">
        <ele>289.494140625</ele>
        <time>2014-11-15T10:56:44Z</time>
      </trkpt>
      <trkpt lat="43.82871" lon="3.72904">
        <ele>289.01354980469</ele>
        <time>2014-11-15T10:56:56Z</time>
      </trkpt>
      <trkpt lat="43.82862" lon="3.72893">
        <ele>286.61022949219</ele>
        <time>2014-11-15T10:57:10Z</time>
      </trkpt>
      <trkpt lat="43.82848" lon="3.72875">
        <ele>283.24560546875</ele>
        <time>2014-11-15T10:57:29Z</time>
      </trkpt>
      <trkpt lat="43.82839" lon="3.72859">
        <ele>282.28430175781</ele>
        <time>2014-11-15T10:57:39Z</time>
      </trkpt>
      <trkpt lat="43.82832" lon="3.7285">
        <ele>281.80358886719</ele>
        <time>2014-11-15T10:57:51Z</time>
      </trkpt>
      <trkpt lat="43.82832" lon="3.72838">
        <ele>280.36169433594</ele>
        <time>2014-11-15T10:58:03Z</time>
      </trkpt>
      <trkpt lat="43.82833" lon="3.72821">
        <ele>279.880859375</ele>
        <time>2014-11-15T10:58:21Z</time>
      </trkpt>
      <trkpt lat="43.82834" lon="3.72794">
        <ele>279.880859375</ele>
        <time>2014-11-15T10:58:43Z</time>
      </trkpt>
      <trkpt lat="43.82841" lon="3.72777">
        <ele>280.36169433594</ele>
        <time>2014-11-15T10:58:59Z</time>
      </trkpt>
      <trkpt lat="43.82846" lon="3.72763">
        <ele>280.84240722656</ele>
        <time>2014-11-15T10:59:13Z</time>
      </trkpt>
      <trkpt lat="43.82854" lon="3.72752">
        <ele>280.84240722656</ele>
        <time>2014-11-15T10:59:27Z</time>
      </trkpt>
      <trkpt lat="43.82862" lon="3.72744">
        <ele>280.84240722656</ele>
        <time>2014-11-15T10:59:40Z</time>
      </trkpt>
      <trkpt lat="43.82871" lon="3.72731">
        <ele>279.40026855469</ele>
        <time>2014-11-15T11:00:04Z</time>
      </trkpt>
      <trkpt lat="43.8289" lon="3.72716">
        <ele>281.32299804688</ele>
        <time>2014-11-15T11:00:32Z</time>
      </trkpt>
      <trkpt lat="43.829" lon="3.72692">
        <ele>281.80358886719</ele>
        <time>2014-11-15T11:00:57Z</time>
      </trkpt>
      <trkpt lat="43.82907" lon="3.72673">
        <ele>282.76501464844</ele>
        <time>2014-11-15T11:01:16Z</time>
      </trkpt>
      <trkpt lat="43.82916" lon="3.72647">
        <ele>283.72619628906</ele>
        <time>2014-11-15T11:01:42Z</time>
      </trkpt>
      <trkpt lat="43.8292" lon="3.72631">
        <ele>286.12951660156</ele>
        <time>2014-11-15T11:02:01Z</time>
      </trkpt>
      <trkpt lat="43.82923" lon="3.72616">
        <ele>287.0908203125</ele>
        <time>2014-11-15T11:02:15Z</time>
      </trkpt>
      <trkpt lat="43.82926" lon="3.72606">
        <ele>289.01354980469</ele>
        <time>2014-11-15T11:02:25Z</time>
      </trkpt>
      <trkpt lat="43.82938" lon="3.72595">
        <ele>292.37817382812</ele>
        <time>2014-11-15T11:02:52Z</time>
      </trkpt>
      <trkpt lat="43.8294" lon="3.72567">
        <ele>294.30078125</ele>
        <time>2014-11-15T11:05:53Z</time>
      </trkpt>
      <trkpt lat="43.82953" lon="3.7255">
        <ele>295.74267578125</ele>
        <time>2014-11-15T11:06:11Z</time>
      </trkpt>
      <trkpt lat="43.82948" lon="3.72526">
        <ele>296.22351074219</ele>
        <time>2014-11-15T11:06:28Z</time>
      </trkpt>
      <trkpt lat="43.82947" lon="3.7251">
        <ele>295.74267578125</ele>
        <time>2014-11-15T11:06:40Z</time>
      </trkpt>
      <trkpt lat="43.82946" lon="3.72496">
        <ele>297.18469238281</ele>
        <time>2014-11-15T11:06:50Z</time>
      </trkpt>
      <trkpt lat="43.82944" lon="3.72471">
        <ele>297.18469238281</ele>
        <time>2014-11-15T11:07:10Z</time>
      </trkpt>
      <trkpt lat="43.82944" lon="3.72449">
        <ele>297.66540527344</ele>
        <time>2014-11-15T11:07:29Z</time>
      </trkpt>
      <trkpt lat="43.82948" lon="3.72431">
        <ele>297.66540527344</ele>
        <time>2014-11-15T11:07:46Z</time>
      </trkpt>
      <trkpt lat="43.82959" lon="3.72427">
        <ele>297.66540527344</ele>
        <time>2014-11-15T11:08:00Z</time>
      </trkpt>
      <trkpt lat="43.82966" lon="3.72412">
        <ele>298.14611816406</ele>
        <time>2014-11-15T11:08:10Z</time>
      </trkpt>
      <trkpt lat="43.82978" lon="3.724">
        <ele>298.14611816406</ele>
        <time>2014-11-15T11:08:23Z</time>
      </trkpt>
      <trkpt lat="43.82988" lon="3.72391">
        <ele>297.66540527344</ele>
        <time>2014-11-15T11:08:40Z</time>
      </trkpt>
      <trkpt lat="43.82995" lon="3.72373">
        <ele>298.62670898438</ele>
        <time>2014-11-15T11:09:01Z</time>
      </trkpt>
      <trkpt lat="43.83007" lon="3.72364">
        <ele>298.14611816406</ele>
        <time>2014-11-15T11:09:20Z</time>
      </trkpt>
      <trkpt lat="43.83011" lon="3.72352">
        <ele>298.14611816406</ele>
        <time>2014-11-15T11:09:37Z</time>
      </trkpt>
      <trkpt lat="43.83023" lon="3.72332">
        <ele>298.14611816406</ele>
        <time>2014-11-15T11:10:13Z</time>
      </trkpt>
      <trkpt lat="43.8304" lon="3.72318">
        <ele>297.66540527344</ele>
        <time>2014-11-15T11:10:38Z</time>
      </trkpt>
      <trkpt lat="43.8305" lon="3.723">
        <ele>298.62670898438</ele>
        <time>2014-11-15T11:10:53Z</time>
      </trkpt>
      <trkpt lat="43.83065" lon="3.72285">
        <ele>297.18469238281</ele>
        <time>2014-11-15T11:11:05Z</time>
      </trkpt>
      <trkpt lat="43.8307" lon="3.72275">
        <ele>296.22351074219</ele>
        <time>2014-11-15T11:11:13Z</time>
      </trkpt>
      <trkpt lat="43.83077" lon="3.72266">
        <ele>295.74267578125</ele>
        <time>2014-11-15T11:11:28Z</time>
      </trkpt>
      <trkpt lat="43.83088" lon="3.72259">
        <ele>293.33935546875</ele>
        <time>2014-11-15T11:11:44Z</time>
      </trkpt>
      <trkpt lat="43.83092" lon="3.72247">
        <ele>292.85876464844</ele>
        <time>2014-11-15T11:12:02Z</time>
      </trkpt>
      <trkpt lat="43.83074" lon="3.72239">
        <ele>292.37817382812</ele>
        <time>2014-11-15T11:13:32Z</time>
      </trkpt>
      <trkpt lat="43.83066" lon="3.72241">
        <ele>292.37817382812</ele>
        <time>2014-11-15T11:13:43Z</time>
      </trkpt>
      <trkpt lat="43.8306" lon="3.72238">
        <ele>291.8974609375</ele>
        <time>2014-11-15T11:13:59Z</time>
      </trkpt>
      <trkpt lat="43.83054" lon="3.72229">
        <ele>290.45556640625</ele>
        <time>2014-11-15T11:14:16Z</time>
      </trkpt>
      <trkpt lat="43.83041" lon="3.72229">
        <ele>289.97485351562</ele>
        <time>2014-11-15T11:14:32Z</time>
      </trkpt>
      <trkpt lat="43.83041" lon="3.72226">
        <ele>289.97485351562</ele>
        <time>2014-11-15T11:14:41Z</time>
      </trkpt>
      <trkpt lat="43.8304" lon="3.72228">
        <ele>289.97485351562</ele>
        <time>2014-11-15T11:14:51Z</time>
      </trkpt>
      <trkpt lat="43.83039" lon="3.72223">
        <ele>289.97485351562</ele>
        <time>2014-11-15T11:14:59Z</time>
      </trkpt>
      <trkpt lat="43.83039" lon="3.72219">
        <ele>289.97485351562</ele>
        <time>2014-11-15T11:15:07Z</time>
      </trkpt>
      <trkpt lat="43.83038" lon="3.72215">
        <ele>289.494140625</ele>
        <time>2014-11-15T11:15:12Z</time>
      </trkpt>
      <trkpt lat="43.83034" lon="3.72206">
        <ele>289.494140625</ele>
        <time>2014-11-15T11:15:19Z</time>
      </trkpt>
      <trkpt lat="43.83029" lon="3.72199">
        <ele>289.01354980469</ele>
        <time>2014-11-15T11:15:28Z</time>
      </trkpt>
      <trkpt lat="43.83024" lon="3.7219">
        <ele>289.494140625</ele>
        <time>2014-11-15T11:15:35Z</time>
      </trkpt>
      <trkpt lat="43.83019" lon="3.72182">
        <ele>289.01354980469</ele>
        <time>2014-11-15T11:15:44Z</time>
      </trkpt>
      <trkpt lat="43.83015" lon="3.72175">
        <ele>289.494140625</ele>
        <time>2014-11-15T11:15:54Z</time>
      </trkpt>
      <trkpt lat="43.8301" lon="3.72174">
        <ele>289.494140625</ele>
        <time>2014-11-15T11:16:01Z</time>
      </trkpt>
      <trkpt lat="43.83006" lon="3.72169">
        <ele>289.494140625</ele>
        <time>2014-11-15T11:16:10Z</time>
      </trkpt>
      <trkpt lat="43.83" lon="3.72161">
        <ele>289.01354980469</ele>
        <time>2014-11-15T11:16:20Z</time>
      </trkpt>
      <trkpt lat="43.82999" lon="3.72156">
        <ele>288.53295898438</ele>
        <time>2014-11-15T11:16:28Z</time>
      </trkpt>
      <trkpt lat="43.82998" lon="3.72149">
        <ele>288.53295898438</ele>
        <time>2014-11-15T11:16:36Z</time>
      </trkpt>
      <trkpt lat="43.82993" lon="3.7215">
        <ele>288.05224609375</ele>
        <time>2014-11-15T11:16:47Z</time>
      </trkpt>
      <trkpt lat="43.82991" lon="3.72146">
        <ele>287.0908203125</ele>
        <time>2014-11-15T11:16:56Z</time>
      </trkpt>
      <trkpt lat="43.82988" lon="3.72146">
        <ele>286.12951660156</ele>
        <time>2014-11-15T11:17:04Z</time>
      </trkpt>
      <trkpt lat="43.82984" lon="3.72148">
        <ele>285.64880371094</ele>
        <time>2014-11-15T11:17:11Z</time>
      </trkpt>
      <trkpt lat="43.82981" lon="3.7215">
        <ele>284.68762207031</ele>
        <time>2014-11-15T11:17:22Z</time>
      </trkpt>
      <trkpt lat="43.82982" lon="3.72157">
        <ele>284.20690917969</ele>
        <time>2014-11-15T11:17:26Z</time>
      </trkpt>
      <trkpt lat="43.82983" lon="3.72157">
        <ele>284.20690917969</ele>
        <time>2014-11-15T11:17:33Z</time>
      </trkpt>
      <trkpt lat="43.82983" lon="3.72157">
        <ele>282.76501464844</ele>
        <time>2014-11-15T11:17:39Z</time>
      </trkpt>
      <trkpt lat="43.82982" lon="3.7216">
        <ele>282.28430175781</ele>
        <time>2014-11-15T11:17:47Z</time>
      </trkpt>
      <trkpt lat="43.82984" lon="3.72162">
        <ele>280.36169433594</ele>
        <time>2014-11-15T11:17:54Z</time>
      </trkpt>
      <trkpt lat="43.82984" lon="3.72166">
        <ele>279.880859375</ele>
        <time>2014-11-15T11:17:59Z</time>
      </trkpt>
      <trkpt lat="43.82977" lon="3.72166">
        <ele>277.47766113281</ele>
        <time>2014-11-15T11:18:07Z</time>
      </trkpt>
      <trkpt lat="43.82961" lon="3.72153">
        <ele>273.63244628906</ele>
        <time>2014-11-15T11:18:23Z</time>
      </trkpt>
      <trkpt lat="43.82955" lon="3.72144">
        <ele>271.22912597656</ele>
        <time>2014-11-15T11:18:38Z</time>
      </trkpt>
      <trkpt lat="43.82948" lon="3.72141">
        <ele>270.74841308594</ele>
        <time>2014-11-15T11:18:50Z</time>
      </trkpt>
      <trkpt lat="43.82939" lon="3.72139">
        <ele>266.42248535156</ele>
        <time>2014-11-15T11:19:06Z</time>
      </trkpt>
      <trkpt lat="43.8295" lon="3.7215">
        <ele>270.26770019531</ele>
        <time>2014-11-15T11:24:55Z</time>
      </trkpt>
      <trkpt lat="43.82966" lon="3.7215">
        <ele>268.34509277344</ele>
        <time>2014-11-15T11:25:25Z</time>
      </trkpt>
      <trkpt lat="43.82978" lon="3.72144">
        <ele>266.90319824219</ele>
        <time>2014-11-15T11:25:49Z</time>
      </trkpt>
      <trkpt lat="43.82984" lon="3.72142">
        <ele>267.86450195312</ele>
        <time>2014-11-15T11:26:05Z</time>
      </trkpt>
      <trkpt lat="43.82989" lon="3.72157">
        <ele>267.38391113281</ele>
        <time>2014-11-15T11:26:24Z</time>
      </trkpt>
      <trkpt lat="43.82994" lon="3.72164">
        <ele>267.38391113281</ele>
        <time>2014-11-15T11:26:39Z</time>
      </trkpt>
      <trkpt lat="43.83001" lon="3.72167">
        <ele>268.34509277344</ele>
        <time>2014-11-15T11:26:58Z</time>
      </trkpt>
      <trkpt lat="43.83005" lon="3.72166">
        <ele>269.30651855469</ele>
        <time>2014-11-15T11:27:13Z</time>
      </trkpt>
      <trkpt lat="43.83008" lon="3.72175">
        <ele>272.1904296875</ele>
        <time>2014-11-15T11:27:28Z</time>
      </trkpt>
      <trkpt lat="43.83019" lon="3.72196">
        <ele>274.59375</ele>
        <time>2014-11-15T11:27:55Z</time>
      </trkpt>
      <trkpt lat="43.83028" lon="3.72213">
        <ele>276.03564453125</ele>
        <time>2014-11-15T11:28:22Z</time>
      </trkpt>
      <trkpt lat="43.83038" lon="3.7223">
        <ele>280.84240722656</ele>
        <time>2014-11-15T11:28:49Z</time>
      </trkpt>
      <trkpt lat="43.83051" lon="3.72234">
        <ele>282.28430175781</ele>
        <time>2014-11-15T11:29:08Z</time>
      </trkpt>
      <trkpt lat="43.83059" lon="3.72244">
        <ele>283.24560546875</ele>
        <time>2014-11-15T11:29:20Z</time>
      </trkpt>
      <trkpt lat="43.83068" lon="3.72245">
        <ele>284.68762207031</ele>
        <time>2014-11-15T11:29:31Z</time>
      </trkpt>
      <trkpt lat="43.83079" lon="3.72243">
        <ele>285.64880371094</ele>
        <time>2014-11-15T11:29:44Z</time>
      </trkpt>
      <trkpt lat="43.83083" lon="3.7225">
        <ele>287.57141113281</ele>
        <time>2014-11-15T11:29:59Z</time>
      </trkpt>
      <trkpt lat="43.83086" lon="3.72252">
        <ele>289.494140625</ele>
        <time>2014-11-15T11:30:24Z</time>
      </trkpt>
      <trkpt lat="43.83088" lon="3.72243">
        <ele>292.85876464844</ele>
        <time>2014-11-15T11:31:23Z</time>
      </trkpt>
      <trkpt lat="43.83078" lon="3.72248">
        <ele>288.05224609375</ele>
        <time>2014-11-15T11:59:28Z</time>
      </trkpt>
      <trkpt lat="43.83063" lon="3.72258">
        <ele>287.0908203125</ele>
        <time>2014-11-15T11:59:41Z</time>
      </trkpt>
      <trkpt lat="43.83062" lon="3.72257">
        <ele>286.12951660156</ele>
        <time>2014-11-15T11:59:51Z</time>
      </trkpt>
      <trkpt lat="43.83069" lon="3.72257">
        <ele>287.0908203125</ele>
        <time>2014-11-15T12:00:22Z</time>
      </trkpt>
      <trkpt lat="43.83073" lon="3.72256">
        <ele>287.0908203125</ele>
        <time>2014-11-15T12:00:32Z</time>
      </trkpt>
      <trkpt lat="43.83077" lon="3.72252">
        <ele>286.61022949219</ele>
        <time>2014-11-15T12:00:43Z</time>
      </trkpt>
      <trkpt lat="43.83081" lon="3.72248">
        <ele>285.64880371094</ele>
        <time>2014-11-15T12:00:53Z</time>
      </trkpt>
      <trkpt lat="43.83082" lon="3.72245">
        <ele>285.16821289062</ele>
        <time>2014-11-15T12:01:01Z</time>
      </trkpt>
      <trkpt lat="43.8308" lon="3.72242">
        <ele>285.64880371094</ele>
        <time>2014-11-15T12:01:12Z</time>
      </trkpt>
      <trkpt lat="43.83078" lon="3.72247">
        <ele>285.64880371094</ele>
        <time>2014-11-15T12:01:25Z</time>
      </trkpt>
      <trkpt lat="43.83082" lon="3.72248">
        <ele>285.64880371094</ele>
        <time>2014-11-15T12:01:44Z</time>
      </trkpt>
      <trkpt lat="43.83081" lon="3.72242">
        <ele>286.61022949219</ele>
        <time>2014-11-15T12:04:43Z</time>
      </trkpt>
      <trkpt lat="43.83076" lon="3.72252">
        <ele>287.57141113281</ele>
        <time>2014-11-15T12:12:15Z</time>
      </trkpt>
      <trkpt lat="43.83076" lon="3.72255">
        <ele>288.05224609375</ele>
        <time>2014-11-15T12:12:24Z</time>
      </trkpt>
      <trkpt lat="43.83079" lon="3.72252">
        <ele>288.53295898438</ele>
        <time>2014-11-15T12:12:43Z</time>
      </trkpt>
      <trkpt lat="43.83077" lon="3.72239">
        <ele>288.05224609375</ele>
        <time>2014-11-15T12:18:27Z</time>
      </trkpt>
      <trkpt lat="43.83077" lon="3.72244">
        <ele>288.05224609375</ele>
        <time>2014-11-15T12:18:35Z</time>
      </trkpt>
      <trkpt lat="43.83073" lon="3.72246">
        <ele>288.53295898438</ele>
        <time>2014-11-15T12:18:44Z</time>
      </trkpt>
      <trkpt lat="43.83065" lon="3.72254">
        <ele>288.05224609375</ele>
        <time>2014-11-15T12:18:56Z</time>
      </trkpt>
      <trkpt lat="43.83063" lon="3.72258">
        <ele>287.0908203125</ele>
        <time>2014-11-15T12:19:07Z</time>
      </trkpt>
      <trkpt lat="43.83057" lon="3.72268">
        <ele>286.12951660156</ele>
        <time>2014-11-15T12:19:20Z</time>
      </trkpt>
      <trkpt lat="43.83052" lon="3.72281">
        <ele>286.12951660156</ele>
        <time>2014-11-15T12:19:31Z</time>
      </trkpt>
      <trkpt lat="43.83042" lon="3.72289">
        <ele>286.12951660156</ele>
        <time>2014-11-15T12:19:43Z</time>
      </trkpt>
      <trkpt lat="43.83036" lon="3.72305">
        <ele>287.0908203125</ele>
        <time>2014-11-15T12:19:57Z</time>
      </trkpt>
      <trkpt lat="43.83029" lon="3.72313">
        <ele>288.53295898438</ele>
        <time>2014-11-15T12:20:09Z</time>
      </trkpt>
      <trkpt lat="43.83022" lon="3.72314">
        <ele>289.97485351562</ele>
        <time>2014-11-15T12:20:16Z</time>
      </trkpt>
      <trkpt lat="43.83017" lon="3.72326">
        <ele>292.37817382812</ele>
        <time>2014-11-15T12:20:29Z</time>
      </trkpt>
      <trkpt lat="43.83007" lon="3.7233">
        <ele>293.82006835938</ele>
        <time>2014-11-15T12:20:43Z</time>
      </trkpt>
      <trkpt lat="43.83005" lon="3.7234">
        <ele>295.74267578125</ele>
        <time>2014-11-15T12:20:55Z</time>
      </trkpt>
      <trkpt lat="43.82999" lon="3.72353">
        <ele>298.14611816406</ele>
        <time>2014-11-15T12:21:07Z</time>
      </trkpt>
      <trkpt lat="43.82992" lon="3.72359">
        <ele>300.54931640625</ele>
        <time>2014-11-15T12:21:17Z</time>
      </trkpt>
      <trkpt lat="43.82986" lon="3.72367">
        <ele>302.47192382812</ele>
        <time>2014-11-15T12:21:27Z</time>
      </trkpt>
      <trkpt lat="43.82981" lon="3.72379">
        <ele>303.91394042969</ele>
        <time>2014-11-15T12:21:36Z</time>
      </trkpt>
      <trkpt lat="43.82976" lon="3.72389">
        <ele>304.39465332031</ele>
        <time>2014-11-15T12:21:45Z</time>
      </trkpt>
      <trkpt lat="43.82967" lon="3.72401">
        <ele>306.31726074219</ele>
        <time>2014-11-15T12:21:56Z</time>
      </trkpt>
      <trkpt lat="43.82963" lon="3.72409">
        <ele>306.31726074219</ele>
        <time>2014-11-15T12:22:03Z</time>
      </trkpt>
      <trkpt lat="43.82959" lon="3.72412">
        <ele>307.27856445312</ele>
        <time>2014-11-15T12:22:09Z</time>
      </trkpt>
      <trkpt lat="43.82942" lon="3.72419">
        <ele>308.23986816406</ele>
        <time>2014-11-15T12:22:25Z</time>
      </trkpt>
      <trkpt lat="43.82939" lon="3.72435">
        <ele>309.68188476562</ele>
        <time>2014-11-15T12:22:36Z</time>
      </trkpt>
      <trkpt lat="43.8294" lon="3.7245">
        <ele>309.68188476562</ele>
        <time>2014-11-15T12:22:47Z</time>
      </trkpt>
      <trkpt lat="43.82941" lon="3.72474">
        <ele>310.16247558594</ele>
        <time>2014-11-15T12:23:02Z</time>
      </trkpt>
      <trkpt lat="43.82936" lon="3.72488">
        <ele>310.64306640625</ele>
        <time>2014-11-15T12:23:14Z</time>
      </trkpt>
      <trkpt lat="43.82934" lon="3.72496">
        <ele>308.72045898438</ele>
        <time>2014-11-15T12:23:24Z</time>
      </trkpt>
      <trkpt lat="43.82937" lon="3.72505">
        <ele>307.75927734375</ele>
        <time>2014-11-15T12:24:07Z</time>
      </trkpt>
      <trkpt lat="43.82937" lon="3.72519">
        <ele>306.31726074219</ele>
        <time>2014-11-15T12:24:19Z</time>
      </trkpt>
      <trkpt lat="43.82939" lon="3.72537">
        <ele>304.39465332031</ele>
        <time>2014-11-15T12:24:31Z</time>
      </trkpt>
      <trkpt lat="43.82937" lon="3.72557">
        <ele>302.95251464844</ele>
        <time>2014-11-15T12:24:46Z</time>
      </trkpt>
      <trkpt lat="43.82933" lon="3.72574">
        <ele>301.51062011719</ele>
        <time>2014-11-15T12:25:01Z</time>
      </trkpt>
      <trkpt lat="43.82928" lon="3.72589">
        <ele>301.02990722656</ele>
        <time>2014-11-15T12:25:13Z</time>
      </trkpt>
      <trkpt lat="43.82927" lon="3.72598">
        <ele>301.02990722656</ele>
        <time>2014-11-15T12:25:20Z</time>
      </trkpt>
      <trkpt lat="43.82918" lon="3.72608">
        <ele>300.06872558594</ele>
        <time>2014-11-15T12:25:31Z</time>
      </trkpt>
      <trkpt lat="43.82914" lon="3.72621">
        <ele>299.58801269531</ele>
        <time>2014-11-15T12:25:42Z</time>
      </trkpt>
      <trkpt lat="43.82909" lon="3.72634">
        <ele>298.62670898438</ele>
        <time>2014-11-15T12:25:58Z</time>
      </trkpt>
      <trkpt lat="43.82901" lon="3.72652">
        <ele>297.66540527344</ele>
        <time>2014-11-15T12:26:10Z</time>
      </trkpt>
      <trkpt lat="43.82899" lon="3.72668">
        <ele>296.7041015625</ele>
        <time>2014-11-15T12:26:20Z</time>
      </trkpt>
      <trkpt lat="43.82894" lon="3.72685">
        <ele>295.74267578125</ele>
        <time>2014-11-15T12:26:33Z</time>
      </trkpt>
      <trkpt lat="43.82888" lon="3.72692">
        <ele>295.26196289062</ele>
        <time>2014-11-15T12:26:45Z</time>
      </trkpt>
      <trkpt lat="43.8288" lon="3.72699">
        <ele>293.82006835938</ele>
        <time>2014-11-15T12:27:00Z</time>
      </trkpt>
      <trkpt lat="43.82871" lon="3.72714">
        <ele>292.85876464844</ele>
        <time>2014-11-15T12:27:14Z</time>
      </trkpt>
      <trkpt lat="43.82861" lon="3.72729">
        <ele>291.8974609375</ele>
        <time>2014-11-15T12:27:28Z</time>
      </trkpt>
      <trkpt lat="43.82854" lon="3.72738">
        <ele>290.45556640625</ele>
        <time>2014-11-15T12:27:39Z</time>
      </trkpt>
      <trkpt lat="43.82852" lon="3.72743">
        <ele>289.01354980469</ele>
        <time>2014-11-15T12:27:46Z</time>
      </trkpt>
      <trkpt lat="43.82842" lon="3.72755">
        <ele>287.57141113281</ele>
        <time>2014-11-15T12:27:58Z</time>
      </trkpt>
      <trkpt lat="43.82836" lon="3.72769">
        <ele>285.16821289062</ele>
        <time>2014-11-15T12:28:07Z</time>
      </trkpt>
      <trkpt lat="43.82834" lon="3.7278">
        <ele>282.76501464844</ele>
        <time>2014-11-15T12:28:15Z</time>
      </trkpt>
      <trkpt lat="43.82832" lon="3.72794">
        <ele>279.40026855469</ele>
        <time>2014-11-15T12:28:27Z</time>
      </trkpt>
      <trkpt lat="43.82831" lon="3.72806">
        <ele>278.43896484375</ele>
        <time>2014-11-15T12:28:45Z</time>
      </trkpt>
      <trkpt lat="43.82836" lon="3.7282">
        <ele>277.47766113281</ele>
        <time>2014-11-15T12:28:57Z</time>
      </trkpt>
      <trkpt lat="43.82831" lon="3.7283">
        <ele>276.51635742188</ele>
        <time>2014-11-15T12:29:08Z</time>
      </trkpt>
      <trkpt lat="43.82834" lon="3.72846">
        <ele>275.07446289062</ele>
        <time>2014-11-15T12:29:22Z</time>
      </trkpt>
      <trkpt lat="43.82846" lon="3.72864">
        <ele>274.59375</ele>
        <time>2014-11-15T12:29:37Z</time>
      </trkpt>
      <trkpt lat="43.82853" lon="3.72877">
        <ele>273.15185546875</ele>
        <time>2014-11-15T12:29:53Z</time>
      </trkpt>
      <trkpt lat="43.82863" lon="3.72896">
        <ele>272.1904296875</ele>
        <time>2014-11-15T12:30:11Z</time>
      </trkpt>
      <trkpt lat="43.82878" lon="3.72909">
        <ele>271.22912597656</ele>
        <time>2014-11-15T12:30:26Z</time>
      </trkpt>
      <trkpt lat="43.82886" lon="3.72914">
        <ele>270.26770019531</ele>
        <time>2014-11-15T12:30:40Z</time>
      </trkpt>
      <trkpt lat="43.82901" lon="3.72922">
        <ele>269.787109375</ele>
        <time>2014-11-15T12:30:54Z</time>
      </trkpt>
      <trkpt lat="43.82912" lon="3.72927">
        <ele>269.30651855469</ele>
        <time>2014-11-15T12:31:07Z</time>
      </trkpt>
      <trkpt lat="43.82919" lon="3.72931">
        <ele>268.82580566406</ele>
        <time>2014-11-15T12:31:13Z</time>
      </trkpt>
      <trkpt lat="43.82926" lon="3.72941">
        <ele>267.86450195312</ele>
        <time>2014-11-15T12:31:28Z</time>
      </trkpt>
      <trkpt lat="43.82925" lon="3.72953">
        <ele>268.34509277344</ele>
        <time>2014-11-15T12:31:40Z</time>
      </trkpt>
      <trkpt lat="43.8292" lon="3.7297">
        <ele>267.86450195312</ele>
        <time>2014-11-15T12:31:53Z</time>
      </trkpt>
      <trkpt lat="43.82918" lon="3.72985">
        <ele>267.86450195312</ele>
        <time>2014-11-15T12:32:06Z</time>
      </trkpt>
      <trkpt lat="43.82915" lon="3.72991">
        <ele>268.34509277344</ele>
        <time>2014-11-15T12:32:23Z</time>
      </trkpt>
      <trkpt lat="43.82911" lon="3.73003">
        <ele>268.82580566406</ele>
        <time>2014-11-15T12:32:44Z</time>
      </trkpt>
      <trkpt lat="43.82906" lon="3.73015">
        <ele>269.787109375</ele>
        <time>2014-11-15T12:33:01Z</time>
      </trkpt>
      <trkpt lat="43.829" lon="3.7302">
        <ele>270.26770019531</ele>
        <time>2014-11-15T12:33:14Z</time>
      </trkpt>
      <trkpt lat="43.8289" lon="3.7304">
        <ele>272.67114257812</ele>
        <time>2014-11-15T12:34:21Z</time>
      </trkpt>
      <trkpt lat="43.82887" lon="3.73051">
        <ele>273.63244628906</ele>
        <time>2014-11-15T12:34:34Z</time>
      </trkpt>
      <trkpt lat="43.82885" lon="3.73058">
        <ele>274.11303710938</ele>
        <time>2014-11-15T12:34:43Z</time>
      </trkpt>
      <trkpt lat="43.82883" lon="3.7307">
        <ele>274.11303710938</ele>
        <time>2014-11-15T12:34:59Z</time>
      </trkpt>
      <trkpt lat="43.82888" lon="3.73096">
        <ele>272.1904296875</ele>
        <time>2014-11-15T12:35:14Z</time>
      </trkpt>
      <trkpt lat="43.82883" lon="3.73109">
        <ele>271.70971679688</ele>
        <time>2014-11-15T12:35:25Z</time>
      </trkpt>
      <trkpt lat="43.82877" lon="3.73108">
        <ele>271.22912597656</ele>
        <time>2014-11-15T12:35:36Z</time>
      </trkpt>
      <trkpt lat="43.82867" lon="3.73095">
        <ele>270.26770019531</ele>
        <time>2014-11-15T12:35:49Z</time>
      </trkpt>
      <trkpt lat="43.82856" lon="3.73094">
        <ele>268.82580566406</ele>
        <time>2014-11-15T12:36:01Z</time>
      </trkpt>
      <trkpt lat="43.8285" lon="3.73089">
        <ele>268.34509277344</ele>
        <time>2014-11-15T12:36:10Z</time>
      </trkpt>
      <trkpt lat="43.82836" lon="3.73084">
        <ele>267.86450195312</ele>
        <time>2014-11-15T12:36:23Z</time>
      </trkpt>
      <trkpt lat="43.82821" lon="3.7308">
        <ele>266.90319824219</ele>
        <time>2014-11-15T12:36:37Z</time>
      </trkpt>
      <trkpt lat="43.82817" lon="3.7308">
        <ele>266.90319824219</ele>
        <time>2014-11-15T12:36:41Z</time>
      </trkpt>
      <trkpt lat="43.828" lon="3.73082">
        <ele>264.98059082031</ele>
        <time>2014-11-15T12:36:56Z</time>
      </trkpt>
      <trkpt lat="43.82791" lon="3.73076">
        <ele>264.98059082031</ele>
        <time>2014-11-15T12:37:05Z</time>
      </trkpt>
      <trkpt lat="43.8278" lon="3.73067">
        <ele>264.49987792969</ele>
        <time>2014-11-15T12:37:17Z</time>
      </trkpt>
      <trkpt lat="43.82769" lon="3.73061">
        <ele>264.01928710938</ele>
        <time>2014-11-15T12:37:32Z</time>
      </trkpt>
      <trkpt lat="43.82756" lon="3.73061">
        <ele>262.09655761719</ele>
        <time>2014-11-15T12:37:49Z</time>
      </trkpt>
      <trkpt lat="43.82741" lon="3.73054">
        <ele>260.65454101562</ele>
        <time>2014-11-15T12:38:06Z</time>
      </trkpt>
      <trkpt lat="43.82734" lon="3.73047">
        <ele>259.693359375</ele>
        <time>2014-11-15T12:38:15Z</time>
      </trkpt>
      <trkpt lat="43.82724" lon="3.73034">
        <ele>258.73193359375</ele>
        <time>2014-11-15T12:38:28Z</time>
      </trkpt>
      <trkpt lat="43.82717" lon="3.73028">
        <ele>258.25134277344</ele>
        <time>2014-11-15T12:38:39Z</time>
      </trkpt>
      <trkpt lat="43.82707" lon="3.73022">
        <ele>257.77075195312</ele>
        <time>2014-11-15T12:38:52Z</time>
      </trkpt>
      <trkpt lat="43.82694" lon="3.73017">
        <ele>256.80932617188</ele>
        <time>2014-11-15T12:39:06Z</time>
      </trkpt>
      <trkpt lat="43.8268" lon="3.73006">
        <ele>254.88659667969</ele>
        <time>2014-11-15T12:39:19Z</time>
      </trkpt>
      <trkpt lat="43.82667" lon="3.73001">
        <ele>252.96398925781</ele>
        <time>2014-11-15T12:39:29Z</time>
      </trkpt>
      <trkpt lat="43.82659" lon="3.72992">
        <ele>252.4833984375</ele>
        <time>2014-11-15T12:39:40Z</time>
      </trkpt>
      <trkpt lat="43.82647" lon="3.72992">
        <ele>252.00280761719</ele>
        <time>2014-11-15T12:39:53Z</time>
      </trkpt>
      <trkpt lat="43.82637" lon="3.72994">
        <ele>251.04138183594</ele>
        <time>2014-11-15T12:40:03Z</time>
      </trkpt>
      <trkpt lat="43.82621" lon="3.72994">
        <ele>249.59948730469</ele>
        <time>2014-11-15T12:40:15Z</time>
      </trkpt>
      <trkpt lat="43.82611" lon="3.72996">
        <ele>248.63818359375</ele>
        <time>2014-11-15T12:40:27Z</time>
      </trkpt>
      <trkpt lat="43.82598" lon="3.73">
        <ele>248.15759277344</ele>
        <time>2014-11-15T12:40:39Z</time>
      </trkpt>
      <trkpt lat="43.82593" lon="3.73001">
        <ele>247.6767578125</ele>
        <time>2014-11-15T12:40:47Z</time>
      </trkpt>
      <trkpt lat="43.82582" lon="3.73004">
        <ele>247.6767578125</ele>
        <time>2014-11-15T12:40:59Z</time>
      </trkpt>
      <trkpt lat="43.82575" lon="3.73007">
        <ele>247.6767578125</ele>
        <time>2014-11-15T12:41:09Z</time>
      </trkpt>
      <trkpt lat="43.82563" lon="3.73012">
        <ele>247.6767578125</ele>
        <time>2014-11-15T12:41:19Z</time>
      </trkpt>
      <trkpt lat="43.82544" lon="3.73031">
        <ele>247.19604492188</ele>
        <time>2014-11-15T12:41:34Z</time>
      </trkpt>
      <trkpt lat="43.82537" lon="3.7304">
        <ele>248.63818359375</ele>
        <time>2014-11-15T12:41:43Z</time>
      </trkpt>
      <trkpt lat="43.82535" lon="3.73041">
        <ele>248.63818359375</ele>
        <time>2014-11-15T12:41:45Z</time>
      </trkpt>
      <trkpt lat="43.82527" lon="3.73051">
        <ele>252.4833984375</ele>
        <time>2014-11-15T12:41:55Z</time>
      </trkpt>
      <trkpt lat="43.82524" lon="3.73055">
        <ele>252.4833984375</ele>
        <time>2014-11-15T12:42:00Z</time>
      </trkpt>
      <trkpt lat="43.82523" lon="3.73059">
        <ele>252.4833984375</ele>
        <time>2014-11-15T12:42:03Z</time>
      </trkpt>
      <trkpt lat="43.82516" lon="3.73065">
        <ele>252.96398925781</ele>
        <time>2014-11-15T12:42:11Z</time>
      </trkpt>
      <trkpt lat="43.82514" lon="3.73067">
        <ele>252.96398925781</ele>
        <time>2014-11-15T12:42:13Z</time>
      </trkpt>
      <trkpt lat="43.8251" lon="3.73066">
        <ele>253.44470214844</ele>
        <time>2014-11-15T12:42:15Z</time>
      </trkpt>
      <trkpt lat="43.82505" lon="3.7307">
        <ele>253.92541503906</ele>
        <time>2014-11-15T12:42:23Z</time>
      </trkpt>
      <trkpt lat="43.82499" lon="3.73076">
        <ele>254.40600585938</ele>
        <time>2014-11-15T12:42:31Z</time>
      </trkpt>
      <trkpt lat="43.82492" lon="3.73081">
        <ele>254.88659667969</ele>
        <time>2014-11-15T12:42:39Z</time>
      </trkpt>
      <trkpt lat="43.82482" lon="3.73088">
        <ele>255.84802246094</ele>
        <time>2014-11-15T12:42:48Z</time>
      </trkpt>
      <trkpt lat="43.82475" lon="3.73093">
        <ele>255.84802246094</ele>
        <time>2014-11-15T12:42:56Z</time>
      </trkpt>
      <trkpt lat="43.82468" lon="3.73102">
        <ele>256.80932617188</ele>
        <time>2014-11-15T12:43:03Z</time>
      </trkpt>
      <trkpt lat="43.82461" lon="3.7311">
        <ele>257.2900390625</ele>
        <time>2014-11-15T12:43:12Z</time>
      </trkpt>
      <trkpt lat="43.82458" lon="3.73112">
        <ele>257.2900390625</ele>
        <time>2014-11-15T12:43:15Z</time>
      </trkpt>
      <trkpt lat="43.82451" lon="3.7312">
        <ele>257.2900390625</ele>
        <time>2014-11-15T12:43:24Z</time>
      </trkpt>
      <trkpt lat="43.82441" lon="3.73129">
        <ele>256.32873535156</ele>
        <time>2014-11-15T12:43:47Z</time>
      </trkpt>
      <trkpt lat="43.82426" lon="3.73137">
        <ele>255.84802246094</ele>
        <time>2014-11-15T12:43:59Z</time>
      </trkpt>
      <trkpt lat="43.82411" lon="3.73152">
        <ele>254.88659667969</ele>
        <time>2014-11-15T12:44:15Z</time>
      </trkpt>
      <trkpt lat="43.824" lon="3.73166">
        <ele>254.88659667969</ele>
        <time>2014-11-15T12:44:30Z</time>
      </trkpt>
      <trkpt lat="43.8239" lon="3.73178">
        <ele>253.92541503906</ele>
        <time>2014-11-15T12:44:43Z</time>
      </trkpt>
      <trkpt lat="43.82379" lon="3.73189">
        <ele>252.96398925781</ele>
        <time>2014-11-15T12:44:58Z</time>
      </trkpt>
      <trkpt lat="43.82367" lon="3.732">
        <ele>252.00280761719</ele>
        <time>2014-11-15T12:45:12Z</time>
      </trkpt>
      <trkpt lat="43.82357" lon="3.73209">
        <ele>251.04138183594</ele>
        <time>2014-11-15T12:45:25Z</time>
      </trkpt>
      <trkpt lat="43.82347" lon="3.73217">
        <ele>250.08020019531</ele>
        <time>2014-11-15T12:45:38Z</time>
      </trkpt>
      <trkpt lat="43.82336" lon="3.73226">
        <ele>249.11877441406</ele>
        <time>2014-11-15T12:45:51Z</time>
      </trkpt>
      <trkpt lat="43.82328" lon="3.7324">
        <ele>247.19604492188</ele>
        <time>2014-11-15T12:46:00Z</time>
      </trkpt>
      <trkpt lat="43.82326" lon="3.7325">
        <ele>244.31225585938</ele>
        <time>2014-11-15T12:46:07Z</time>
      </trkpt>
      <trkpt lat="43.82325" lon="3.73259">
        <ele>242.87023925781</ele>
        <time>2014-11-15T12:46:16Z</time>
      </trkpt>
      <trkpt lat="43.82324" lon="3.73265">
        <ele>241.42822265625</ele>
        <time>2014-11-15T12:46:22Z</time>
      </trkpt>
      <trkpt lat="43.82318" lon="3.73279">
        <ele>239.50549316406</ele>
        <time>2014-11-15T12:46:33Z</time>
      </trkpt>
      <trkpt lat="43.82316" lon="3.7328">
        <ele>239.02490234375</ele>
        <time>2014-11-15T12:46:35Z</time>
      </trkpt>
      <trkpt lat="43.82307" lon="3.7329">
        <ele>237.58288574219</ele>
        <time>2014-11-15T12:46:45Z</time>
      </trkpt>
      <trkpt lat="43.82303" lon="3.733">
        <ele>237.10229492188</ele>
        <time>2014-11-15T12:46:53Z</time>
      </trkpt>
      <trkpt lat="43.823" lon="3.73306">
        <ele>236.14099121094</ele>
        <time>2014-11-15T12:47:00Z</time>
      </trkpt>
      <trkpt lat="43.82297" lon="3.7331">
        <ele>235.66027832031</ele>
        <time>2014-11-15T12:47:03Z</time>
      </trkpt>
      <trkpt lat="43.82292" lon="3.73314">
        <ele>235.1796875</ele>
        <time>2014-11-15T12:47:09Z</time>
      </trkpt>
      <trkpt lat="43.82286" lon="3.73323">
        <ele>234.69909667969</ele>
        <time>2014-11-15T12:47:18Z</time>
      </trkpt>
      <trkpt lat="43.82282" lon="3.73325">
        <ele>234.21838378906</ele>
        <time>2014-11-15T12:47:24Z</time>
      </trkpt>
      <trkpt lat="43.82279" lon="3.73334">
        <ele>233.73767089844</ele>
        <time>2014-11-15T12:47:32Z</time>
      </trkpt>
      <trkpt lat="43.82277" lon="3.73343">
        <ele>233.73767089844</ele>
        <time>2014-11-15T12:47:40Z</time>
      </trkpt>
      <trkpt lat="43.82271" lon="3.73351">
        <ele>233.73767089844</ele>
        <time>2014-11-15T12:47:48Z</time>
      </trkpt>
      <trkpt lat="43.82267" lon="3.73356">
        <ele>233.73767089844</ele>
        <time>2014-11-15T12:47:54Z</time>
      </trkpt>
      <trkpt lat="43.8226" lon="3.73366">
        <ele>234.69909667969</ele>
        <time>2014-11-15T12:48:03Z</time>
      </trkpt>
      <trkpt lat="43.82257" lon="3.73371">
        <ele>234.69909667969</ele>
        <time>2014-11-15T12:48:07Z</time>
      </trkpt>
      <trkpt lat="43.82252" lon="3.73377">
        <ele>235.1796875</ele>
        <time>2014-11-15T12:48:15Z</time>
      </trkpt>
      <trkpt lat="43.82248" lon="3.73381">
        <ele>235.66027832031</ele>
        <time>2014-11-15T12:48:22Z</time>
      </trkpt>
      <trkpt lat="43.82242" lon="3.73385">
        <ele>236.14099121094</ele>
        <time>2014-11-15T12:48:28Z</time>
      </trkpt>
      <trkpt lat="43.82238" lon="3.7339">
        <ele>236.62170410156</ele>
        <time>2014-11-15T12:48:35Z</time>
      </trkpt>
      <trkpt lat="43.82231" lon="3.73406">
        <ele>237.58288574219</ele>
        <time>2014-11-15T12:48:46Z</time>
      </trkpt>
      <trkpt lat="43.82226" lon="3.73413">
        <ele>238.06359863281</ele>
        <time>2014-11-15T12:48:53Z</time>
      </trkpt>
      <trkpt lat="43.82223" lon="3.73422">
        <ele>238.06359863281</ele>
        <time>2014-11-15T12:49:01Z</time>
      </trkpt>
      <trkpt lat="43.8222" lon="3.73429">
        <ele>238.54431152344</ele>
        <time>2014-11-15T12:49:10Z</time>
      </trkpt>
      <trkpt lat="43.82217" lon="3.73439">
        <ele>238.54431152344</ele>
        <time>2014-11-15T12:49:18Z</time>
      </trkpt>
      <trkpt lat="43.82213" lon="3.73447">
        <ele>238.06359863281</ele>
        <time>2014-11-15T12:49:25Z</time>
      </trkpt>
      <trkpt lat="43.82207" lon="3.7346">
        <ele>238.06359863281</ele>
        <time>2014-11-15T12:49:38Z</time>
      </trkpt>
      <trkpt lat="43.82205" lon="3.73478">
        <ele>235.66027832031</ele>
        <time>2014-11-15T12:49:49Z</time>
      </trkpt>
      <trkpt lat="43.82205" lon="3.73481">
        <ele>236.14099121094</ele>
        <time>2014-11-15T12:49:57Z</time>
      </trkpt>
      <trkpt lat="43.82204" lon="3.73485">
        <ele>236.62170410156</ele>
        <time>2014-11-15T12:50:13Z</time>
      </trkpt>
      <trkpt lat="43.82203" lon="3.73491">
        <ele>236.62170410156</ele>
        <time>2014-11-15T12:50:25Z</time>
      </trkpt>
      <trkpt lat="43.82206" lon="3.73509">
        <ele>236.62170410156</ele>
        <time>2014-11-15T12:50:44Z</time>
      </trkpt>
      <trkpt lat="43.82205" lon="3.73519">
        <ele>237.10229492188</ele>
        <time>2014-11-15T12:51:03Z</time>
      </trkpt>
      <trkpt lat="43.82212" lon="3.73527">
        <ele>237.10229492188</ele>
        <time>2014-11-15T12:51:19Z</time>
      </trkpt>
      <trkpt lat="43.82217" lon="3.73533">
        <ele>236.62170410156</ele>
        <time>2014-11-15T12:51:32Z</time>
      </trkpt>
      <trkpt lat="43.82221" lon="3.7355">
        <ele>237.10229492188</ele>
        <time>2014-11-15T12:51:49Z</time>
      </trkpt>
      <trkpt lat="43.82223" lon="3.73567">
        <ele>237.10229492188</ele>
        <time>2014-11-15T12:52:04Z</time>
      </trkpt>
      <trkpt lat="43.82229" lon="3.73583">
        <ele>237.10229492188</ele>
        <time>2014-11-15T12:52:20Z</time>
      </trkpt>
      <trkpt lat="43.82227" lon="3.73588">
        <ele>237.10229492188</ele>
        <time>2014-11-15T12:52:33Z</time>
      </trkpt>
      <trkpt lat="43.8223" lon="3.73601">
        <ele>237.58288574219</ele>
        <time>2014-11-15T12:52:52Z</time>
      </trkpt>
      <trkpt lat="43.82236" lon="3.73611">
        <ele>238.54431152344</ele>
        <time>2014-11-15T12:52:57Z</time>
      </trkpt>
      <trkpt lat="43.82234" lon="3.73626">
        <ele>239.50549316406</ele>
        <time>2014-11-15T12:53:08Z</time>
      </trkpt>
      <trkpt lat="43.82232" lon="3.73638">
        <ele>238.54431152344</ele>
        <time>2014-11-15T12:53:25Z</time>
      </trkpt>
      <trkpt lat="43.82232" lon="3.73647">
        <ele>238.06359863281</ele>
        <time>2014-11-15T12:53:34Z</time>
      </trkpt>
      <trkpt lat="43.82229" lon="3.73655">
        <ele>237.58288574219</ele>
        <time>2014-11-15T12:53:42Z</time>
      </trkpt>
      <trkpt lat="43.8223" lon="3.73662">
        <ele>236.14099121094</ele>
        <time>2014-11-15T12:53:51Z</time>
      </trkpt>
      <trkpt lat="43.82227" lon="3.73664">
        <ele>234.69909667969</ele>
        <time>2014-11-15T12:54:25Z</time>
      </trkpt>
      <trkpt lat="43.82223" lon="3.73687">
        <ele>233.73767089844</ele>
        <time>2014-11-15T12:57:25Z</time>
      </trkpt>
      <trkpt lat="43.82222" lon="3.73691">
        <ele>233.25708007812</ele>
        <time>2014-11-15T12:57:32Z</time>
      </trkpt>
      <trkpt lat="43.82222" lon="3.73698">
        <ele>232.77648925781</ele>
        <time>2014-11-15T12:57:41Z</time>
      </trkpt>
      <trkpt lat="43.8222" lon="3.73706">
        <ele>232.77648925781</ele>
        <time>2014-11-15T12:57:47Z</time>
      </trkpt>
      <trkpt lat="43.82216" lon="3.73716">
        <ele>232.77648925781</ele>
        <time>2014-11-15T12:57:56Z</time>
      </trkpt>
      <trkpt lat="43.82217" lon="3.73721">
        <ele>232.77648925781</ele>
        <time>2014-11-15T12:58:04Z</time>
      </trkpt>
      <trkpt lat="43.82218" lon="3.73729">
        <ele>233.25708007812</ele>
        <time>2014-11-15T12:58:11Z</time>
      </trkpt>
      <trkpt lat="43.8222" lon="3.73732">
        <ele>233.25708007812</ele>
        <time>2014-11-15T12:58:20Z</time>
      </trkpt>
      <trkpt lat="43.82223" lon="3.73741">
        <ele>232.77648925781</ele>
        <time>2014-11-15T12:58:33Z</time>
      </trkpt>
      <trkpt lat="43.82223" lon="3.73748">
        <ele>233.25708007812</ele>
        <time>2014-11-15T12:58:39Z</time>
      </trkpt>
      <trkpt lat="43.82224" lon="3.73752">
        <ele>233.25708007812</ele>
        <time>2014-11-15T12:58:46Z</time>
      </trkpt>
      <trkpt lat="43.82224" lon="3.73756">
        <ele>233.25708007812</ele>
        <time>2014-11-15T12:58:51Z</time>
      </trkpt>
      <trkpt lat="43.82224" lon="3.73773">
        <ele>233.25708007812</ele>
        <time>2014-11-15T12:59:01Z</time>
      </trkpt>
      <trkpt lat="43.82226" lon="3.73789">
        <ele>233.25708007812</ele>
        <time>2014-11-15T12:59:12Z</time>
      </trkpt>
      <trkpt lat="43.8223" lon="3.73794">
        <ele>232.77648925781</ele>
        <time>2014-11-15T12:59:18Z</time>
      </trkpt>
      <trkpt lat="43.82237" lon="3.73805">
        <ele>231.33435058594</ele>
        <time>2014-11-15T12:59:27Z</time>
      </trkpt>
      <trkpt lat="43.82242" lon="3.73815">
        <ele>229.89233398438</ele>
        <time>2014-11-15T12:59:37Z</time>
      </trkpt>
      <trkpt lat="43.82246" lon="3.73824">
        <ele>228.93115234375</ele>
        <time>2014-11-15T12:59:46Z</time>
      </trkpt>
      <trkpt lat="43.82253" lon="3.73832">
        <ele>228.45043945312</ele>
        <time>2014-11-15T12:59:55Z</time>
      </trkpt>
      <trkpt lat="43.82263" lon="3.73834">
        <ele>227.9697265625</ele>
        <time>2014-11-15T13:00:02Z</time>
      </trkpt>
      <trkpt lat="43.82267" lon="3.73838">
        <ele>227.48913574219</ele>
        <time>2014-11-15T13:00:07Z</time>
      </trkpt>
      <trkpt lat="43.82274" lon="3.73841">
        <ele>226.04711914062</ele>
        <time>2014-11-15T13:00:16Z</time>
      </trkpt>
      <trkpt lat="43.82277" lon="3.73844">
        <ele>225.0859375</ele>
        <time>2014-11-15T13:00:26Z</time>
      </trkpt>
      <trkpt lat="43.82281" lon="3.73847">
        <ele>225.56652832031</ele>
        <time>2014-11-15T13:00:34Z</time>
      </trkpt>
      <trkpt lat="43.82297" lon="3.73865">
        <ele>225.56652832031</ele>
        <time>2014-11-15T13:00:59Z</time>
      </trkpt>
      <trkpt lat="43.82299" lon="3.73866">
        <ele>225.56652832031</ele>
        <time>2014-11-15T13:01:01Z</time>
      </trkpt>
      <trkpt lat="43.82316" lon="3.73875">
        <ele>227.00854492188</ele>
        <time>2014-11-15T13:01:18Z</time>
      </trkpt>
      <trkpt lat="43.82333" lon="3.7388">
        <ele>227.00854492188</ele>
        <time>2014-11-15T13:01:35Z</time>
      </trkpt>
      <trkpt lat="43.82346" lon="3.73888">
        <ele>227.00854492188</ele>
        <time>2014-11-15T13:01:47Z</time>
      </trkpt>
      <trkpt lat="43.82349" lon="3.73888">
        <ele>227.00854492188</ele>
        <time>2014-11-15T13:02:00Z</time>
      </trkpt>
      <trkpt lat="43.82357" lon="3.73901">
        <ele>227.48913574219</ele>
        <time>2014-11-15T13:02:48Z</time>
      </trkpt>
      <trkpt lat="43.82367" lon="3.73913">
        <ele>226.52783203125</ele>
        <time>2014-11-15T13:03:09Z</time>
      </trkpt>
      <trkpt lat="43.82381" lon="3.73917">
        <ele>224.60522460938</ele>
        <time>2014-11-15T13:03:37Z</time>
      </trkpt>
      <trkpt lat="43.82388" lon="3.73925">
        <ele>222.68249511719</ele>
        <time>2014-11-15T13:03:54Z</time>
      </trkpt>
      <trkpt lat="43.82396" lon="3.73931">
        <ele>222.68249511719</ele>
        <time>2014-11-15T13:04:08Z</time>
      </trkpt>
      <trkpt lat="43.82402" lon="3.73939">
        <ele>221.72119140625</ele>
        <time>2014-11-15T13:04:27Z</time>
      </trkpt>
      <trkpt lat="43.82406" lon="3.73952">
        <ele>223.64379882812</ele>
        <time>2014-11-15T13:04:59Z</time>
      </trkpt>
      <trkpt lat="43.82418" lon="3.73963">
        <ele>226.04711914062</ele>
        <time>2014-11-15T13:05:18Z</time>
      </trkpt>
      <trkpt lat="43.82432" lon="3.7398">
        <ele>226.52783203125</ele>
        <time>2014-11-15T13:05:37Z</time>
      </trkpt>
      <trkpt lat="43.82438" lon="3.73995">
        <ele>227.48913574219</ele>
        <time>2014-11-15T13:05:53Z</time>
      </trkpt>
      <trkpt lat="43.82441" lon="3.74011">
        <ele>227.9697265625</ele>
        <time>2014-11-15T13:06:11Z</time>
      </trkpt>
      <trkpt lat="43.82449" lon="3.74033">
        <ele>226.04711914062</ele>
        <time>2014-11-15T13:06:32Z</time>
      </trkpt>
      <trkpt lat="43.82457" lon="3.74041">
        <ele>225.0859375</ele>
        <time>2014-11-15T13:06:45Z</time>
      </trkpt>
      <trkpt lat="43.82468" lon="3.7405">
        <ele>221.24060058594</ele>
        <time>2014-11-15T13:06:57Z</time>
      </trkpt>
      <trkpt lat="43.82478" lon="3.74054">
        <ele>217.8759765625</ele>
        <time>2014-11-15T13:07:08Z</time>
      </trkpt>
      <trkpt lat="43.8249" lon="3.74063">
        <ele>214.99194335938</ele>
        <time>2014-11-15T13:07:20Z</time>
      </trkpt>
      <trkpt lat="43.82499" lon="3.74072">
        <ele>211.62744140625</ele>
        <time>2014-11-15T13:07:29Z</time>
      </trkpt>
      <trkpt lat="43.82502" lon="3.74074">
        <ele>210.666015625</ele>
        <time>2014-11-15T13:07:31Z</time>
      </trkpt>
      <trkpt lat="43.82506" lon="3.74079">
        <ele>207.78210449219</ele>
        <time>2014-11-15T13:07:38Z</time>
      </trkpt>
      <trkpt lat="43.82515" lon="3.74085">
        <ele>202.97546386719</ele>
        <time>2014-11-15T13:07:50Z</time>
      </trkpt>
      <trkpt lat="43.82528" lon="3.74097">
        <ele>197.68823242188</ele>
        <time>2014-11-15T13:08:03Z</time>
      </trkpt>
      <trkpt lat="43.82537" lon="3.74104">
        <ele>195.28491210938</ele>
        <time>2014-11-15T13:08:15Z</time>
      </trkpt>
      <trkpt lat="43.82549" lon="3.74113">
        <ele>191.92028808594</ele>
        <time>2014-11-15T13:08:30Z</time>
      </trkpt>
      <trkpt lat="43.82558" lon="3.74118">
        <ele>190.958984375</ele>
        <time>2014-11-15T13:08:41Z</time>
      </trkpt>
      <trkpt lat="43.82568" lon="3.74133">
        <ele>192.40112304688</ele>
        <time>2014-11-15T13:08:53Z</time>
      </trkpt>
      <trkpt lat="43.82579" lon="3.74139">
        <ele>192.40112304688</ele>
        <time>2014-11-15T13:09:03Z</time>
      </trkpt>
      <trkpt lat="43.82592" lon="3.74146">
        <ele>193.3623046875</ele>
        <time>2014-11-15T13:09:16Z</time>
      </trkpt>
      <trkpt lat="43.82606" lon="3.74156">
        <ele>193.84301757812</ele>
        <time>2014-11-15T13:09:31Z</time>
      </trkpt>
      <trkpt lat="43.82617" lon="3.74158">
        <ele>195.28491210938</ele>
        <time>2014-11-15T13:09:44Z</time>
      </trkpt>
      <trkpt lat="43.82629" lon="3.7417">
        <ele>196.24633789062</ele>
        <time>2014-11-15T13:09:56Z</time>
      </trkpt>
      <trkpt lat="43.82644" lon="3.74178">
        <ele>197.20751953125</ele>
        <time>2014-11-15T13:10:12Z</time>
      </trkpt>
      <trkpt lat="43.8265" lon="3.74196">
        <ele>197.68823242188</ele>
        <time>2014-11-15T13:10:24Z</time>
      </trkpt>
      <trkpt lat="43.8265" lon="3.74204">
        <ele>198.1689453125</ele>
        <time>2014-11-15T13:10:26Z</time>
      </trkpt>
      <trkpt lat="43.82653" lon="3.74218">
        <ele>198.64953613281</ele>
        <time>2014-11-15T13:10:37Z</time>
      </trkpt>
      <trkpt lat="43.82657" lon="3.7424">
        <ele>197.68823242188</ele>
        <time>2014-11-15T13:10:59Z</time>
      </trkpt>
      <trkpt lat="43.82658" lon="3.74263">
        <ele>195.765625</ele>
        <time>2014-11-15T13:11:09Z</time>
      </trkpt>
      <trkpt lat="43.82661" lon="3.74275">
        <ele>191.43957519531</ele>
        <time>2014-11-15T13:11:20Z</time>
      </trkpt>
      <trkpt lat="43.82662" lon="3.74281">
        <ele>188.55578613281</ele>
        <time>2014-11-15T13:11:28Z</time>
      </trkpt>
      <trkpt lat="43.82663" lon="3.74287">
        <ele>186.15246582031</ele>
        <time>2014-11-15T13:11:36Z</time>
      </trkpt>
      <trkpt lat="43.82667" lon="3.74298">
        <ele>183.26843261719</ele>
        <time>2014-11-15T13:11:46Z</time>
      </trkpt>
      <trkpt lat="43.82665" lon="3.74317">
        <ele>182.30712890625</ele>
        <time>2014-11-15T13:12:00Z</time>
      </trkpt>
      <trkpt lat="43.82668" lon="3.74339">
        <ele>180.865234375</ele>
        <time>2014-11-15T13:12:18Z</time>
      </trkpt>
      <trkpt lat="43.82666" lon="3.74364">
        <ele>179.42321777344</ele>
        <time>2014-11-15T13:12:33Z</time>
      </trkpt>
      <trkpt lat="43.8266" lon="3.74383">
        <ele>177.98120117188</ele>
        <time>2014-11-15T13:12:48Z</time>
      </trkpt>
      <trkpt lat="43.82647" lon="3.74391">
        <ele>176.05859375</ele>
        <time>2014-11-15T13:13:02Z</time>
      </trkpt>
      <trkpt lat="43.82634" lon="3.74402">
        <ele>175.57788085938</ele>
        <time>2014-11-15T13:13:13Z</time>
      </trkpt>
      <trkpt lat="43.82631" lon="3.74403">
        <ele>175.57788085938</ele>
        <time>2014-11-15T13:13:15Z</time>
      </trkpt>
      <trkpt lat="43.82622" lon="3.74411">
        <ele>174.61657714844</ele>
        <time>2014-11-15T13:13:24Z</time>
      </trkpt>
      <trkpt lat="43.82619" lon="3.74415">
        <ele>174.13586425781</ele>
        <time>2014-11-15T13:13:32Z</time>
      </trkpt>
      <trkpt lat="43.82617" lon="3.74412">
        <ele>175.57788085938</ele>
        <time>2014-11-15T13:13:51Z</time>
      </trkpt>
      <trkpt lat="43.82613" lon="3.74423">
        <ele>174.13586425781</ele>
        <time>2014-11-15T13:14:42Z</time>
      </trkpt>
      <trkpt lat="43.82612" lon="3.74425">
        <ele>174.13586425781</ele>
        <time>2014-11-15T13:14:43Z</time>
      </trkpt>
      <trkpt lat="43.82606" lon="3.74426">
        <ele>174.61657714844</ele>
        <time>2014-11-15T13:14:54Z</time>
      </trkpt>
      <trkpt lat="43.82601" lon="3.74435">
        <ele>176.05859375</ele>
        <time>2014-11-15T13:15:17Z</time>
      </trkpt>
      <trkpt lat="43.82589" lon="3.74434">
        <ele>180.38452148438</ele>
        <time>2014-11-15T13:17:14Z</time>
      </trkpt>
      <trkpt lat="43.82586" lon="3.74433">
        <ele>181.34582519531</ele>
        <time>2014-11-15T13:17:16Z</time>
      </trkpt>
      <trkpt lat="43.82565" lon="3.74433">
        <ele>190.958984375</ele>
        <time>2014-11-15T13:17:30Z</time>
      </trkpt>
      <trkpt lat="43.82558" lon="3.74433">
        <ele>191.92028808594</ele>
        <time>2014-11-15T13:17:34Z</time>
      </trkpt>
      <trkpt lat="43.82548" lon="3.74435">
        <ele>194.32373046875</ele>
        <time>2014-11-15T13:17:42Z</time>
      </trkpt>
      <trkpt lat="43.8254" lon="3.74433">
        <ele>195.28491210938</ele>
        <time>2014-11-15T13:17:49Z</time>
      </trkpt>
      <trkpt lat="43.82537" lon="3.74435">
        <ele>195.765625</ele>
        <time>2014-11-15T13:17:52Z</time>
      </trkpt>
      <trkpt lat="43.82526" lon="3.74442">
        <ele>197.68823242188</ele>
        <time>2014-11-15T13:18:01Z</time>
      </trkpt>
      <trkpt lat="43.82515" lon="3.74443">
        <ele>199.61083984375</ele>
        <time>2014-11-15T13:18:11Z</time>
      </trkpt>
      <trkpt lat="43.82505" lon="3.74441">
        <ele>201.05285644531</ele>
        <time>2014-11-15T13:18:19Z</time>
      </trkpt>
      <trkpt lat="43.82494" lon="3.74431">
        <ele>202.49487304688</ele>
        <time>2014-11-15T13:18:32Z</time>
      </trkpt>
      <trkpt lat="43.82483" lon="3.74422">
        <ele>202.49487304688</ele>
        <time>2014-11-15T13:18:45Z</time>
      </trkpt>
      <trkpt lat="43.82476" lon="3.74422">
        <ele>202.97546386719</ele>
        <time>2014-11-15T13:18:50Z</time>
      </trkpt>
      <trkpt lat="43.82467" lon="3.74427">
        <ele>202.97546386719</ele>
        <time>2014-11-15T13:18:56Z</time>
      </trkpt>
      <trkpt lat="43.82466" lon="3.74429">
        <ele>203.45617675781</ele>
        <time>2014-11-15T13:18:58Z</time>
      </trkpt>
      <trkpt lat="43.82459" lon="3.74434">
        <ele>203.45617675781</ele>
        <time>2014-11-15T13:19:05Z</time>
      </trkpt>
      <trkpt lat="43.82449" lon="3.74433">
        <ele>203.45617675781</ele>
        <time>2014-11-15T13:19:14Z</time>
      </trkpt>
      <trkpt lat="43.82438" lon="3.74429">
        <ele>203.45617675781</ele>
        <time>2014-11-15T13:19:26Z</time>
      </trkpt>
      <trkpt lat="43.82428" lon="3.74433">
        <ele>203.93688964844</ele>
        <time>2014-11-15T13:19:38Z</time>
      </trkpt>
      <trkpt lat="43.82424" lon="3.74437">
        <ele>203.93688964844</ele>
        <time>2014-11-15T13:19:42Z</time>
      </trkpt>
      <trkpt lat="43.82418" lon="3.74439">
        <ele>203.45617675781</ele>
        <time>2014-11-15T13:19:51Z</time>
      </trkpt>
      <trkpt lat="43.82417" lon="3.74423">
        <ele>202.49487304688</ele>
        <time>2014-11-15T13:20:19Z</time>
      </trkpt>
      <trkpt lat="43.82416" lon="3.74414">
        <ele>202.49487304688</ele>
        <time>2014-11-15T13:20:28Z</time>
      </trkpt>
      <trkpt lat="43.82408" lon="3.74404">
        <ele>202.49487304688</ele>
        <time>2014-11-15T13:20:43Z</time>
      </trkpt>
      <trkpt lat="43.82397" lon="3.74403">
        <ele>201.53356933594</ele>
        <time>2014-11-15T13:20:58Z</time>
      </trkpt>
      <trkpt lat="43.82389" lon="3.74398">
        <ele>202.01428222656</ele>
        <time>2014-11-15T13:21:11Z</time>
      </trkpt>
      <trkpt lat="43.82376" lon="3.74392">
        <ele>202.49487304688</ele>
        <time>2014-11-15T13:21:25Z</time>
      </trkpt>
      <trkpt lat="43.8236" lon="3.74389">
        <ele>203.45617675781</ele>
        <time>2014-11-15T13:21:39Z</time>
      </trkpt>
      <trkpt lat="43.8236" lon="3.74391">
        <ele>202.97546386719</ele>
        <time>2014-11-15T13:21:53Z</time>
      </trkpt>
      <trkpt lat="43.82351" lon="3.74384">
        <ele>203.45617675781</ele>
        <time>2014-11-15T13:22:16Z</time>
      </trkpt>
      <trkpt lat="43.82339" lon="3.74381">
        <ele>203.45617675781</ele>
        <time>2014-11-15T13:22:31Z</time>
      </trkpt>
      <trkpt lat="43.82326" lon="3.7438">
        <ele>203.93688964844</ele>
        <time>2014-11-15T13:22:43Z</time>
      </trkpt>
      <trkpt lat="43.82314" lon="3.74377">
        <ele>203.45617675781</ele>
        <time>2014-11-15T13:22:56Z</time>
      </trkpt>
      <trkpt lat="43.82301" lon="3.74371">
        <ele>203.93688964844</ele>
        <time>2014-11-15T13:23:10Z</time>
      </trkpt>
      <trkpt lat="43.82285" lon="3.74362">
        <ele>203.93688964844</ele>
        <time>2014-11-15T13:23:24Z</time>
      </trkpt>
      <trkpt lat="43.82274" lon="3.74358">
        <ele>204.41748046875</ele>
        <time>2014-11-15T13:23:36Z</time>
      </trkpt>
      <trkpt lat="43.8226" lon="3.74352">
        <ele>204.41748046875</ele>
        <time>2014-11-15T13:23:53Z</time>
      </trkpt>
      <trkpt lat="43.82252" lon="3.74348">
        <ele>204.41748046875</ele>
        <time>2014-11-15T13:24:01Z</time>
      </trkpt>
      <trkpt lat="43.82243" lon="3.74347">
        <ele>203.93688964844</ele>
        <time>2014-11-15T13:24:10Z</time>
      </trkpt>
      <trkpt lat="43.82227" lon="3.74341">
        <ele>202.97546386719</ele>
        <time>2014-11-15T13:24:25Z</time>
      </trkpt>
      <trkpt lat="43.8221" lon="3.74338">
        <ele>202.49487304688</ele>
        <time>2014-11-15T13:24:40Z</time>
      </trkpt>
      <trkpt lat="43.82198" lon="3.7433">
        <ele>202.01428222656</ele>
        <time>2014-11-15T13:24:53Z</time>
      </trkpt>
      <trkpt lat="43.82181" lon="3.74322">
        <ele>201.53356933594</ele>
        <time>2014-11-15T13:25:09Z</time>
      </trkpt>
      <trkpt lat="43.82171" lon="3.74321">
        <ele>202.01428222656</ele>
        <time>2014-11-15T13:25:21Z</time>
      </trkpt>
      <trkpt lat="43.82159" lon="3.74318">
        <ele>202.49487304688</ele>
        <time>2014-11-15T13:25:33Z</time>
      </trkpt>
      <trkpt lat="43.82153" lon="3.74319">
        <ele>202.01428222656</ele>
        <time>2014-11-15T13:25:38Z</time>
      </trkpt>
      <trkpt lat="43.82146" lon="3.7432">
        <ele>201.05285644531</ele>
        <time>2014-11-15T13:25:47Z</time>
      </trkpt>
      <trkpt lat="43.8213" lon="3.74312">
        <ele>199.13012695312</ele>
        <time>2014-11-15T13:26:04Z</time>
      </trkpt>
      <trkpt lat="43.82118" lon="3.74308">
        <ele>197.68823242188</ele>
        <time>2014-11-15T13:26:15Z</time>
      </trkpt>
      <trkpt lat="43.82105" lon="3.74303">
        <ele>196.24633789062</ele>
        <time>2014-11-15T13:26:30Z</time>
      </trkpt>
      <trkpt lat="43.82095" lon="3.74298">
        <ele>194.80432128906</ele>
        <time>2014-11-15T13:26:42Z</time>
      </trkpt>
      <trkpt lat="43.82083" lon="3.7429">
        <ele>193.84301757812</ele>
        <time>2014-11-15T13:26:55Z</time>
      </trkpt>
      <trkpt lat="43.82082" lon="3.74287">
        <ele>192.88171386719</ele>
        <time>2014-11-15T13:27:05Z</time>
      </trkpt>
      <trkpt lat="43.82078" lon="3.7428">
        <ele>191.92028808594</ele>
        <time>2014-11-15T13:27:25Z</time>
      </trkpt>
      <trkpt lat="43.82067" lon="3.74266">
        <ele>189.99768066406</ele>
        <time>2014-11-15T13:27:44Z</time>
      </trkpt>
      <trkpt lat="43.82058" lon="3.74258">
        <ele>188.07507324219</ele>
        <time>2014-11-15T13:27:58Z</time>
      </trkpt>
      <trkpt lat="43.82054" lon="3.74257">
        <ele>187.11376953125</ele>
        <time>2014-11-15T13:28:13Z</time>
      </trkpt>
      <trkpt lat="43.82042" lon="3.74263">
        <ele>187.11376953125</ele>
        <time>2014-11-15T13:28:27Z</time>
      </trkpt>
      <trkpt lat="43.82036" lon="3.74266">
        <ele>187.11376953125</ele>
        <time>2014-11-15T13:28:36Z</time>
      </trkpt>
      <trkpt lat="43.82026" lon="3.74272">
        <ele>186.63317871094</ele>
        <time>2014-11-15T13:28:47Z</time>
      </trkpt>
      <trkpt lat="43.82018" lon="3.74268">
        <ele>186.63317871094</ele>
        <time>2014-11-15T13:28:57Z</time>
      </trkpt>
      <trkpt lat="43.82008" lon="3.74267">
        <ele>186.15246582031</ele>
        <time>2014-11-15T13:29:09Z</time>
      </trkpt>
      <trkpt lat="43.81996" lon="3.7427">
        <ele>185.67175292969</ele>
        <time>2014-11-15T13:29:19Z</time>
      </trkpt>
      <trkpt lat="43.81989" lon="3.74271">
        <ele>185.19116210938</ele>
        <time>2014-11-15T13:29:29Z</time>
      </trkpt>
      <trkpt lat="43.81988" lon="3.74269">
        <ele>184.71057128906</ele>
        <time>2014-11-15T13:29:42Z</time>
      </trkpt>
      <trkpt lat="43.8198" lon="3.74254">
        <ele>183.26843261719</ele>
        <time>2014-11-15T13:30:16Z</time>
      </trkpt>
      <trkpt lat="43.81973" lon="3.74236">
        <ele>183.26843261719</ele>
        <time>2014-11-15T13:30:32Z</time>
      </trkpt>
      <trkpt lat="43.81961" lon="3.74226">
        <ele>182.78784179688</ele>
        <time>2014-11-15T13:30:47Z</time>
      </trkpt>
      <trkpt lat="43.81956" lon="3.74218">
        <ele>183.26843261719</ele>
        <time>2014-11-15T13:30:58Z</time>
      </trkpt>
      <trkpt lat="43.81947" lon="3.74207">
        <ele>184.22985839844</ele>
        <time>2014-11-15T13:31:10Z</time>
      </trkpt>
      <trkpt lat="43.81935" lon="3.74202">
        <ele>184.71057128906</ele>
        <time>2014-11-15T13:31:24Z</time>
      </trkpt>
      <trkpt lat="43.81927" lon="3.74199">
        <ele>184.71057128906</ele>
        <time>2014-11-15T13:31:35Z</time>
      </trkpt>
      <trkpt lat="43.81917" lon="3.74188">
        <ele>184.22985839844</ele>
        <time>2014-11-15T13:31:51Z</time>
      </trkpt>
      <trkpt lat="43.81908" lon="3.74176">
        <ele>184.22985839844</ele>
        <time>2014-11-15T13:32:05Z</time>
      </trkpt>
      <trkpt lat="43.81904" lon="3.74165">
        <ele>183.26843261719</ele>
        <time>2014-11-15T13:32:18Z</time>
      </trkpt>
      <trkpt lat="43.81899" lon="3.74151">
        <ele>181.82641601562</ele>
        <time>2014-11-15T13:32:32Z</time>
      </trkpt>
      <trkpt lat="43.81894" lon="3.74142">
        <ele>180.865234375</ele>
        <time>2014-11-15T13:32:45Z</time>
      </trkpt>
      <trkpt lat="43.81886" lon="3.74143">
        <ele>178.94262695312</ele>
        <time>2014-11-15T13:33:26Z</time>
      </trkpt>
      <trkpt lat="43.81883" lon="3.7415">
        <ele>179.90380859375</ele>
        <time>2014-11-15T13:33:56Z</time>
      </trkpt>
      <trkpt lat="43.81879" lon="3.74163">
        <ele>181.82641601562</ele>
        <time>2014-11-15T13:34:07Z</time>
      </trkpt>
      <trkpt lat="43.81876" lon="3.74175">
        <ele>184.22985839844</ele>
        <time>2014-11-15T13:34:16Z</time>
      </trkpt>
      <trkpt lat="43.81873" lon="3.74179">
        <ele>185.67175292969</ele>
        <time>2014-11-15T13:34:19Z</time>
      </trkpt>
      <trkpt lat="43.81875" lon="3.74188">
        <ele>185.67175292969</ele>
        <time>2014-11-15T13:34:30Z</time>
      </trkpt>
      <trkpt lat="43.81874" lon="3.74196">
        <ele>186.63317871094</ele>
        <time>2014-11-15T13:34:44Z</time>
      </trkpt>
      <trkpt lat="43.81872" lon="3.74205">
        <ele>187.59436035156</ele>
        <time>2014-11-15T13:34:59Z</time>
      </trkpt>
      <trkpt lat="43.81865" lon="3.74212">
        <ele>187.59436035156</ele>
        <time>2014-11-15T13:35:22Z</time>
      </trkpt>
      <trkpt lat="43.81862" lon="3.74215">
        <ele>189.03637695312</ele>
        <time>2014-11-15T13:35:43Z</time>
      </trkpt>
      <trkpt lat="43.81855" lon="3.74212">
        <ele>186.15246582031</ele>
        <time>2014-11-15T13:36:06Z</time>
      </trkpt>
      <trkpt lat="43.81852" lon="3.74218">
        <ele>183.7490234375</ele>
        <time>2014-11-15T13:36:21Z</time>
      </trkpt>
      <trkpt lat="43.81847" lon="3.74219">
        <ele>179.90380859375</ele>
        <time>2014-11-15T13:36:34Z</time>
      </trkpt>
      <trkpt lat="43.81843" lon="3.74219">
        <ele>178.94262695312</ele>
        <time>2014-11-15T13:36:36Z</time>
      </trkpt>
      <trkpt lat="43.81834" lon="3.74219">
        <ele>177.02001953125</ele>
        <time>2014-11-15T13:36:44Z</time>
      </trkpt>
      <trkpt lat="43.81825" lon="3.74221">
        <ele>176.05859375</ele>
        <time>2014-11-15T13:36:50Z</time>
      </trkpt>
      <trkpt lat="43.8182" lon="3.74218">
        <ele>177.02001953125</ele>
        <time>2014-11-15T13:36:57Z</time>
      </trkpt>
      <trkpt lat="43.81819" lon="3.74217">
        <ele>177.02001953125</ele>
        <time>2014-11-15T13:36:59Z</time>
      </trkpt>
      <trkpt lat="43.81809" lon="3.74218">
        <ele>175.09729003906</ele>
        <time>2014-11-15T13:37:07Z</time>
      </trkpt>
      <trkpt lat="43.81804" lon="3.74219">
        <ele>173.6552734375</ele>
        <time>2014-11-15T13:37:11Z</time>
      </trkpt>
      <trkpt lat="43.81795" lon="3.74224">
        <ele>171.73266601562</ele>
        <time>2014-11-15T13:37:20Z</time>
      </trkpt>
      <trkpt lat="43.81793" lon="3.74226">
        <ele>171.73266601562</ele>
        <time>2014-11-15T13:37:22Z</time>
      </trkpt>
      <trkpt lat="43.81788" lon="3.74231">
        <ele>169.81005859375</ele>
        <time>2014-11-15T13:37:30Z</time>
      </trkpt>
      <trkpt lat="43.81786" lon="3.74234">
        <ele>169.81005859375</ele>
        <time>2014-11-15T13:37:32Z</time>
      </trkpt>
      <trkpt lat="43.81782" lon="3.7424">
        <ele>169.81005859375</ele>
        <time>2014-11-15T13:37:37Z</time>
      </trkpt>
      <trkpt lat="43.81775" lon="3.74244">
        <ele>169.81005859375</ele>
        <time>2014-11-15T13:37:45Z</time>
      </trkpt>
      <trkpt lat="43.81774" lon="3.74246">
        <ele>169.81005859375</ele>
        <time>2014-11-15T13:37:47Z</time>
      </trkpt>
      <trkpt lat="43.81768" lon="3.74253">
        <ele>170.29064941406</ele>
        <time>2014-11-15T13:37:55Z</time>
      </trkpt>
      <trkpt lat="43.81759" lon="3.74253">
        <ele>170.29064941406</ele>
        <time>2014-11-15T13:38:04Z</time>
      </trkpt>
      <trkpt lat="43.8175" lon="3.74253">
        <ele>171.25207519531</ele>
        <time>2014-11-15T13:38:16Z</time>
      </trkpt>
      <trkpt lat="43.81737" lon="3.74251">
        <ele>171.25207519531</ele>
        <time>2014-11-15T13:38:29Z</time>
      </trkpt>
      <trkpt lat="43.81726" lon="3.7425">
        <ele>171.25207519531</ele>
        <time>2014-11-15T13:38:40Z</time>
      </trkpt>
      <trkpt lat="43.81721" lon="3.74251">
        <ele>171.25207519531</ele>
        <time>2014-11-15T13:38:47Z</time>
      </trkpt>
      <trkpt lat="43.81706" lon="3.74249">
        <ele>171.73266601562</ele>
        <time>2014-11-15T13:39:01Z</time>
      </trkpt>
      <trkpt lat="43.81694" lon="3.74246">
        <ele>171.73266601562</ele>
        <time>2014-11-15T13:39:12Z</time>
      </trkpt>
      <trkpt lat="43.8168" lon="3.74243">
        <ele>171.25207519531</ele>
        <time>2014-11-15T13:39:27Z</time>
      </trkpt>
      <trkpt lat="43.81673" lon="3.74244">
        <ele>171.73266601562</ele>
        <time>2014-11-15T13:39:38Z</time>
      </trkpt>
      <trkpt lat="43.81667" lon="3.74243">
        <ele>171.73266601562</ele>
        <time>2014-11-15T13:39:50Z</time>
      </trkpt>
      <trkpt lat="43.81653" lon="3.74244">
        <ele>171.73266601562</ele>
        <time>2014-11-15T13:40:06Z</time>
      </trkpt>
      <trkpt lat="43.81648" lon="3.74239">
        <ele>170.77136230469</ele>
        <time>2014-11-15T13:40:18Z</time>
      </trkpt>
      <trkpt lat="43.81639" lon="3.74236">
        <ele>169.32946777344</ele>
        <time>2014-11-15T13:40:26Z</time>
      </trkpt>
      <trkpt lat="43.81631" lon="3.74234">
        <ele>169.32946777344</ele>
        <time>2014-11-15T13:40:34Z</time>
      </trkpt>
      <trkpt lat="43.81624" lon="3.74228">
        <ele>169.32946777344</ele>
        <time>2014-11-15T13:40:42Z</time>
      </trkpt>
      <trkpt lat="43.81621" lon="3.74226">
        <ele>168.36804199219</ele>
        <time>2014-11-15T13:40:46Z</time>
      </trkpt>
      <trkpt lat="43.81603" lon="3.74221">
        <ele>167.40673828125</ele>
        <time>2014-11-15T13:40:58Z</time>
      </trkpt>
      <trkpt lat="43.81601" lon="3.74221">
        <ele>167.40673828125</ele>
        <time>2014-11-15T13:40:59Z</time>
      </trkpt>
      <trkpt lat="43.81592" lon="3.74221">
        <ele>168.36804199219</ele>
        <time>2014-11-15T13:41:06Z</time>
      </trkpt>
      <trkpt lat="43.81584" lon="3.74228">
        <ele>170.29064941406</ele>
        <time>2014-11-15T13:41:14Z</time>
      </trkpt>
      <trkpt lat="43.81572" lon="3.74237">
        <ele>172.69396972656</ele>
        <time>2014-11-15T13:41:28Z</time>
      </trkpt>
      <trkpt lat="43.8156" lon="3.74243">
        <ele>175.09729003906</ele>
        <time>2014-11-15T13:41:42Z</time>
      </trkpt>
      <trkpt lat="43.81555" lon="3.74245">
        <ele>176.05859375</ele>
        <time>2014-11-15T13:41:47Z</time>
      </trkpt>
      <trkpt lat="43.81552" lon="3.74247">
        <ele>177.50061035156</ele>
        <time>2014-11-15T13:41:53Z</time>
      </trkpt>
      <trkpt lat="43.81542" lon="3.74251">
        <ele>179.42321777344</ele>
        <time>2014-11-15T13:42:05Z</time>
      </trkpt>
      <trkpt lat="43.81536" lon="3.74247">
        <ele>180.38452148438</ele>
        <time>2014-11-15T13:42:15Z</time>
      </trkpt>
      <trkpt lat="43.81532" lon="3.74257">
        <ele>185.67175292969</ele>
        <time>2014-11-15T13:42:54Z</time>
      </trkpt>
      <trkpt lat="43.81528" lon="3.74266">
        <ele>184.22985839844</ele>
        <time>2014-11-15T13:43:07Z</time>
      </trkpt>
      <trkpt lat="43.81519" lon="3.74276">
        <ele>182.78784179688</ele>
        <time>2014-11-15T13:43:25Z</time>
      </trkpt>
      <trkpt lat="43.81518" lon="3.74278">
        <ele>182.78784179688</ele>
        <time>2014-11-15T13:43:27Z</time>
      </trkpt>
      <trkpt lat="43.81513" lon="3.74283">
        <ele>182.78784179688</ele>
        <time>2014-11-15T13:43:37Z</time>
      </trkpt>
      <trkpt lat="43.81503" lon="3.74282">
        <ele>183.7490234375</ele>
        <time>2014-11-15T13:43:47Z</time>
      </trkpt>
      <trkpt lat="43.81487" lon="3.74279">
        <ele>184.22985839844</ele>
        <time>2014-11-15T13:44:02Z</time>
      </trkpt>
      <trkpt lat="43.81473" lon="3.74282">
        <ele>185.67175292969</ele>
        <time>2014-11-15T13:44:17Z</time>
      </trkpt>
      <trkpt lat="43.81461" lon="3.74273">
        <ele>187.59436035156</ele>
        <time>2014-11-15T13:44:29Z</time>
      </trkpt>
      <trkpt lat="43.81449" lon="3.74268">
        <ele>189.03637695312</ele>
        <time>2014-11-15T13:44:43Z</time>
      </trkpt>
      <trkpt lat="43.81429" lon="3.7426">
        <ele>189.51696777344</ele>
        <time>2014-11-15T13:44:56Z</time>
      </trkpt>
      <trkpt lat="43.8142" lon="3.74258">
        <ele>190.958984375</ele>
        <time>2014-11-15T13:45:03Z</time>
      </trkpt>
      <trkpt lat="43.81413" lon="3.74249">
        <ele>191.43957519531</ele>
        <time>2014-11-15T13:45:11Z</time>
      </trkpt>
      <trkpt lat="43.81408" lon="3.74251">
        <ele>192.40112304688</ele>
        <time>2014-11-15T13:45:18Z</time>
      </trkpt>
      <trkpt lat="43.81396" lon="3.74251">
        <ele>192.40112304688</ele>
        <time>2014-11-15T13:45:31Z</time>
      </trkpt>
      <trkpt lat="43.81383" lon="3.74248">
        <ele>193.84301757812</ele>
        <time>2014-11-15T13:45:42Z</time>
      </trkpt>
      <trkpt lat="43.81378" lon="3.74248">
        <ele>193.84301757812</ele>
        <time>2014-11-15T13:45:51Z</time>
      </trkpt>
      <trkpt lat="43.8137" lon="3.74254">
        <ele>195.765625</ele>
        <time>2014-11-15T13:46:02Z</time>
      </trkpt>
      <trkpt lat="43.81357" lon="3.74251">
        <ele>197.68823242188</ele>
        <time>2014-11-15T13:46:15Z</time>
      </trkpt>
      <trkpt lat="43.81341" lon="3.74251">
        <ele>200.09167480469</ele>
        <time>2014-11-15T13:46:29Z</time>
      </trkpt>
      <trkpt lat="43.81328" lon="3.74246">
        <ele>202.01428222656</ele>
        <time>2014-11-15T13:46:39Z</time>
      </trkpt>
      <trkpt lat="43.81322" lon="3.74245">
        <ele>203.45617675781</ele>
        <time>2014-11-15T13:46:45Z</time>
      </trkpt>
      <trkpt lat="43.8131" lon="3.7424">
        <ele>205.85949707031</ele>
        <time>2014-11-15T13:46:57Z</time>
      </trkpt>
      <trkpt lat="43.81297" lon="3.74239">
        <ele>208.74340820312</ele>
        <time>2014-11-15T13:47:12Z</time>
      </trkpt>
      <trkpt lat="43.81283" lon="3.74236">
        <ele>211.14672851562</ele>
        <time>2014-11-15T13:47:23Z</time>
      </trkpt>
      <trkpt lat="43.81279" lon="3.74239">
        <ele>212.10803222656</ele>
        <time>2014-11-15T13:47:27Z</time>
      </trkpt>
      <trkpt lat="43.81274" lon="3.74249">
        <ele>213.0693359375</ele>
        <time>2014-11-15T13:47:35Z</time>
      </trkpt>
      <trkpt lat="43.81261" lon="3.74254">
        <ele>214.03063964844</ele>
        <time>2014-11-15T13:47:47Z</time>
      </trkpt>
      <trkpt lat="43.81254" lon="3.74258">
        <ele>215.95324707031</ele>
        <time>2014-11-15T13:47:58Z</time>
      </trkpt>
      <trkpt lat="43.81245" lon="3.74261">
        <ele>217.8759765625</ele>
        <time>2014-11-15T13:48:07Z</time>
      </trkpt>
      <trkpt lat="43.81242" lon="3.74264">
        <ele>219.31799316406</ele>
        <time>2014-11-15T13:48:13Z</time>
      </trkpt>
      <trkpt lat="43.81238" lon="3.7427">
        <ele>218.83728027344</ele>
        <time>2014-11-15T13:48:23Z</time>
      </trkpt>
      <trkpt lat="43.81229" lon="3.74282">
        <ele>218.83728027344</ele>
        <time>2014-11-15T13:48:36Z</time>
      </trkpt>
      <trkpt lat="43.81227" lon="3.7428">
        <ele>214.03063964844</ele>
        <time>2014-11-15T13:48:46Z</time>
      </trkpt>
      <trkpt lat="43.81229" lon="3.7428">
        <ele>205.37878417969</ele>
        <time>2014-11-15T13:48:51Z</time>
      </trkpt>
      <trkpt lat="43.81221" lon="3.74267">
        <ele>200.09167480469</ele>
        <time>2014-11-15T13:49:03Z</time>
      </trkpt>
      <trkpt lat="43.81216" lon="3.7426">
        <ele>190.958984375</ele>
        <time>2014-11-15T13:49:12Z</time>
      </trkpt>
      <trkpt lat="43.81209" lon="3.74247">
        <ele>188.07507324219</ele>
        <time>2014-11-15T13:49:22Z</time>
      </trkpt>
      <trkpt lat="43.81204" lon="3.74234">
        <ele>185.67175292969</ele>
        <time>2014-11-15T13:49:31Z</time>
      </trkpt>
      <trkpt lat="43.81197" lon="3.74222">
        <ele>185.19116210938</ele>
        <time>2014-11-15T13:49:38Z</time>
      </trkpt>
      <trkpt lat="43.81188" lon="3.74206">
        <ele>185.19116210938</ele>
        <time>2014-11-15T13:49:51Z</time>
      </trkpt>
      <trkpt lat="43.81178" lon="3.74185">
        <ele>184.71057128906</ele>
        <time>2014-11-15T13:50:06Z</time>
      </trkpt>
      <trkpt lat="43.81175" lon="3.74173">
        <ele>185.19116210938</ele>
        <time>2014-11-15T13:50:17Z</time>
      </trkpt>
      <trkpt lat="43.81174" lon="3.74175">
        <ele>185.67175292969</ele>
        <time>2014-11-15T13:50:25Z</time>
      </trkpt>
      <trkpt lat="43.81178" lon="3.74179">
        <ele>187.11376953125</ele>
        <time>2014-11-15T13:50:34Z</time>
      </trkpt>
      <trkpt lat="43.81182" lon="3.7419">
        <ele>188.55578613281</ele>
        <time>2014-11-15T13:50:49Z</time>
      </trkpt>
      <trkpt lat="43.81181" lon="3.74193">
        <ele>191.92028808594</ele>
        <time>2014-11-15T13:51:52Z</time>
      </trkpt>
      <trkpt lat="43.81181" lon="3.74193">
        <ele>191.92028808594</ele>
        <time>2014-11-15T13:52:08Z</time>
      </trkpt>
    </trkseg>
  </trk>
</gpx>